Observation data for Clyde on 05/27/2019      Previous  Date  Next       Current Mesonet Observations  Soil Data  Daily Summary Page  Observations in Plain Language
KCL2 270500Z 16016KT 24/19 A2989 RMK A01 T02380187  RH  073%=      5-min Rain = 0
KCL2 270501Z 16018KT 24/19 A2989 RMK A01 T02380187  RH  073%=      5-min Rain = 0
KCL2 270502Z 16014KT 24/19 A2989 RMK A01 T02380187  RH  073%=      5-min Rain = 0
KCL2 270503Z 16016KT 24/19 A2989 RMK A01 T02380187  RH  073%=      5-min Rain = 0
KCL2 270504Z 16014KT 24/19 A2989 RMK A01 T02370187  RH  073%=      5-min Rain = 0
KCL2 270505Z 17017KT 24/19 A2989 RMK A01 T02370187  RH  073%=      5-min Rain = 0
KCL2 270506Z 17014KT 24/19 A2989 RMK A01 T02370187  RH  074%=      5-min Rain = 0
KCL2 270507Z 16017G25KT 24/19 A299 RMK A01 T02370188  RH  074%=      5-min Rain = 0
KCL2 270508Z 16019KT 24/19 A2989 RMK A01 T02370187  RH  074%=      5-min Rain = 0
KCL2 270509Z 16018KT 24/19 A2989 RMK A01 T02370187  RH  073%=      5-min Rain = 0
KCL2 270510Z 16017G23KT 24/19 A299 RMK A01 T02380187  RH  073%=      5-min Rain = 0
KCL2 270511Z 16018KT 24/19 A2989 RMK A01 T02380187  RH  073%=      5-min Rain = 0
KCL2 270512Z 16017G22KT 24/19 A299 RMK A01 T02380187  RH  073%=      5-min Rain = 0
KCL2 270513Z 16015KT 24/19 A299 RMK A01 T02380187  RH  073%=      5-min Rain = 0
KCL2 270514Z 16015KT 24/19 A2989 RMK A01 T02370187  RH  073%=      5-min Rain = 0
KCL2 270515Z 16016KT 24/19 A2989 RMK A01 T02370187  RH  073%=      5-min Rain = 0
KCL2 270516Z 16015KT 24/19 A2989 RMK A01 T02360187  RH  074%=      5-min Rain = 0
KCL2 270517Z 16019KT 24/19 A2989 RMK A01 T02360187  RH  074%=      5-min Rain = 0
KCL2 270518Z 15017G22KT 24/19 A2989 RMK A01 T02360187  RH  074%=      5-min Rain = 0
KCL2 270519Z 16014KT 24/19 A2989 RMK A01 T02360187  RH  074%=      5-min Rain = 0
KCL2 270520Z 16015KT 24/19 A2989 RMK A01 T02350187  RH  074%=      5-min Rain = 0
KCL2 270521Z 16019KT 24/19 A2989 RMK A01 T02350187  RH  074%=      5-min Rain = 0
KCL2 270522Z 16018G25KT 24/19 A2989 RMK A01 T02350186  RH  074%=      5-min Rain = 0
KCL2 270523Z 16016KT 24/19 A2989 RMK A01 T02350186  RH  074%=      5-min Rain = 0
KCL2 270524Z 17016G21KT 24/19 A2989 RMK A01 T02350186  RH  074%=      5-min Rain = 0
KCL2 270525Z 16016KT 24/19 A2989 RMK A01 T02360187  RH  074%=      5-min Rain = 0
KCL2 270526Z 17016G22KT 24/19 A2989 RMK A01 T02350186  RH  074%=      5-min Rain = 0
KCL2 270527Z 16015G20KT 23/19 A2989 RMK A01 T02340186  RH  074%=      5-min Rain = 0
KCL2 270528Z 16016KT 23/19 A2989 RMK A01 T02340187  RH  075%=      5-min Rain = 0
KCL2 270529Z 16014KT 23/19 A2989 RMK A01 T02330186  RH  075%=      5-min Rain = 0
KCL2 270530Z 16017G23KT 23/19 A2989 RMK A01 T02330187  RH  075%=      5-min Rain = 0
KCL2 270531Z 16014KT 23/19 A2989 RMK A01 T02330186  RH  075%=      5-min Rain = 0
KCL2 270532Z 16017KT 23/19 A2989 RMK A01 T02330186  RH  075%=      5-min Rain = 0
KCL2 270533Z 16014KT 23/19 A2989 RMK A01 T02330186  RH  075%=      5-min Rain = 0
KCL2 270534Z 17014KT 23/19 A2989 RMK A01 T02330186  RH  075%=      5-min Rain = 0
KCL2 270535Z 16015KT 23/19 A2989 RMK A01 T02330187  RH  075%=      5-min Rain = 0
KCL2 270536Z 16015KT 23/19 A2989 RMK A01 T02320186  RH  075%=      5-min Rain = 0
KCL2 270537Z 16015G20KT 23/19 A2989 RMK A01 T02320186  RH  075%=      5-min Rain = 0
KCL2 270538Z 16017G22KT 23/19 A2989 RMK A01 T02320186  RH  075%=      5-min Rain = 0
KCL2 270539Z 17015KT 23/19 A2988 RMK A01 T02320186  RH  075%=      5-min Rain = 0
KCL2 270540Z 16014KT 23/19 A2989 RMK A01 T02320186  RH  075%=      5-min Rain = 0
KCL2 270541Z 16016G21KT 23/19 A2989 RMK A01 T02320186  RH  075%=      5-min Rain = 0
KCL2 270542Z 16020G26KT 23/19 A2989 RMK A01 T02320186  RH  075%=      5-min Rain = 0
KCL2 270543Z 16018G23KT 23/19 A2988 RMK A01 T02320186  RH  075%=      5-min Rain = 0
KCL2 270544Z 16018G24KT 23/19 A2988 RMK A01 T02320185  RH  075%=      5-min Rain = 0
KCL2 270545Z 16013KT 23/19 A2989 RMK A01 T02320185  RH  075%=      5-min Rain = 0
KCL2 270546Z 16014KT 23/19 A2989 RMK A01 T02320186  RH  075%=      5-min Rain = 0
KCL2 270547Z 17016G21KT 23/19 A2989 RMK A01 T02310186  RH  076%=      5-min Rain = 0
KCL2 270548Z 16014KT 23/19 A2989 RMK A01 T02310186  RH  076%=      5-min Rain = 0
KCL2 270549Z 16016KT 23/19 A2989 RMK A01 T02310186  RH  076%=      5-min Rain = 0
KCL2 270550Z 16016G21KT 23/19 A2989 RMK A01 T02310186  RH  076%=      5-min Rain = 0
KCL2 270551Z 16015KT 23/19 A2989 RMK A01 T02310186  RH  076%=      5-min Rain = 0
KCL2 270552Z 17015G20KT 23/19 A2989 RMK A01 T02300186  RH  076%=      5-min Rain = 0
KCL2 270553Z 17015G20KT 23/19 A2989 RMK A01 T02300186  RH  076%=      5-min Rain = 0
KCL2 270554Z 17017G22KT 23/19 A2989 RMK A01 T02300186  RH  076%=      5-min Rain = 0
KCL2 270555Z 16018G24KT 23/19 A2989 RMK A01 T02300185  RH  076%=      5-min Rain = 0
KCL2 270556Z 17016G21KT 23/19 A2989 RMK A01 T02300185  RH  076%=      5-min Rain = 0
KCL2 270557Z 17016KT 23/19 A2989 RMK A01 T02300185  RH  076%=      5-min Rain = 0
KCL2 270558Z 17016G21KT 23/19 A2989 RMK A01 T02300185  RH  076%=      5-min Rain = 0
KCL2 270559Z 17015KT 23/19 A2989 RMK A01 T02300186  RH  076%=      5-min Rain = 0
KCL2 270600Z 17014KT 23/19 A2989 RMK A01 T02300185  RH  076%=      5-min Rain = 0
KCL2 270601Z 17014G21KT 23/19 A2989 RMK A01 T02300186  RH  076%=      5-min Rain = 0
KCL2 270602Z 17016KT 23/19 A2989 RMK A01 T02290185  RH  076%=      5-min Rain = 0
KCL2 270603Z 17016KT 23/19 A2989 RMK A01 T02290185  RH  076%=      5-min Rain = 0
KCL2 270604Z 17014KT 23/19 A2989 RMK A01 T02290185  RH  076%=      5-min Rain = 0
KCL2 270605Z 17015G21KT 23/19 A2989 RMK A01 T02290185  RH  076%=      5-min Rain = 0
KCL2 270606Z 17015KT 23/19 A2989 RMK A01 T02290185  RH  077%=      5-min Rain = 0
KCL2 270607Z 17016G22KT 23/19 A2989 RMK A01 T02290186  RH  077%=      5-min Rain = 0
KCL2 270608Z 17014G19KT 23/19 A2989 RMK A01 T02280185  RH  077%=      5-min Rain = 0
KCL2 270609Z 17017G22KT 23/19 A2989 RMK A01 T02280185  RH  077%=      5-min Rain = 0
KCL2 270610Z 17017KT 23/19 A2989 RMK A01 T02280185  RH  077%=      5-min Rain = 0
KCL2 270611Z 16020G25KT 23/19 A2989 RMK A01 T02280185  RH  077%=      5-min Rain = 0
KCL2 270612Z 17020KT 23/19 A2989 RMK A01 T02290185  RH  076%=      5-min Rain = 0
KCL2 270613Z 17015KT 23/19 A2989 RMK A01 T02290185  RH  076%=      5-min Rain = 0
KCL2 270614Z 17017G23KT 23/19 A2989 RMK A01 T02290185  RH  076%=      5-min Rain = 0
KCL2 270615Z 17014G19KT 23/19 A2989 RMK A01 T02280185  RH  077%=      5-min Rain = 0
KCL2 270616Z 17018G24KT 23/19 A2989 RMK A01 T02280185  RH  077%=      5-min Rain = 0
KCL2 270617Z 17016G22KT 23/19 A2989 RMK A01 T02280185  RH  077%=      5-min Rain = 0
KCL2 270618Z 17017KT 23/19 A2989 RMK A01 T02280185  RH  077%=      5-min Rain = 0
KCL2 270619Z 17015G22KT 23/19 A2988 RMK A01 T02280185  RH  077%=      5-min Rain = 0
KCL2 270620Z 17017KT 23/19 A2988 RMK A01 T02270185  RH  077%=      5-min Rain = 0
KCL2 270621Z 17016KT 23/19 A2988 RMK A01 T02270185  RH  077%=      5-min Rain = 0
KCL2 270622Z 17016KT 23/19 A2988 RMK A01 T02270185  RH  077%=      5-min Rain = 0
KCL2 270623Z 17017G23KT 23/19 A2988 RMK A01 T02280185  RH  077%=      5-min Rain = 0
KCL2 270624Z 17017G23KT 23/19 A2988 RMK A01 T02280185  RH  077%=      5-min Rain = 0
KCL2 270625Z 17014G20KT 23/18 A2988 RMK A01 T02270184  RH  077%=      5-min Rain = 0
KCL2 270626Z 17015G20KT 23/19 A2988 RMK A01 T02270185  RH  077%=      5-min Rain = 0
KCL2 270627Z 17017G22KT 23/18 A2988 RMK A01 T02270184  RH  077%=      5-min Rain = 0
KCL2 270628Z 17020G25KT 23/18 A2988 RMK A01 T02270184  RH  077%=      5-min Rain = 0
KCL2 270629Z 17015KT 23/18 A2988 RMK A01 T02280184  RH  077%=      5-min Rain = 0
KCL2 270630Z 17015G20KT 23/19 A2988 RMK A01 T02280185  RH  077%=      5-min Rain = 0
KCL2 270631Z 17015KT 23/18 A2988 RMK A01 T02270184  RH  077%=      5-min Rain = 0
KCL2 270632Z 16017G23KT 23/18 A2988 RMK A01 T02270184  RH  077%=      5-min Rain = 0
KCL2 270633Z 17018KT 23/19 A2988 RMK A01 T02270185  RH  077%=      5-min Rain = 0
KCL2 270634Z 17015KT 23/18 A2988 RMK A01 T02270184  RH  077%=      5-min Rain = 0
KCL2 270635Z 17014KT 23/18 A2988 RMK A01 T02270184  RH  077%=      5-min Rain = 0
KCL2 270636Z 17016KT 23/18 A2988 RMK A01 T02270184  RH  077%=      5-min Rain = 0
KCL2 270637Z 17014KT 23/18 A2988 RMK A01 T02270184  RH  077%=      5-min Rain = 0
KCL2 270638Z 17016G26KT 23/18 A2988 RMK A01 T02260184  RH  077%=      5-min Rain = 0
KCL2 270639Z 17015KT 23/18 A2988 RMK A01 T02260184  RH  077%=      5-min Rain = 0
KCL2 270640Z 17016KT 23/18 A2988 RMK A01 T02260184  RH  077%=      5-min Rain = 0
KCL2 270641Z 17012KT 23/18 A2988 RMK A01 T02260184  RH  077%=      5-min Rain = 0
KCL2 270642Z 17013KT 23/18 A2989 RMK A01 T02250184  RH  078%=      5-min Rain = 0
KCL2 270643Z 17015G20KT 22/18 A2988 RMK A01 T02240184  RH  078%=      5-min Rain = 0
KCL2 270644Z 17018KT 22/18 A2988 RMK A01 T02240184  RH  078%=      5-min Rain = 0
KCL2 270645Z 17013G20KT 23/18 A2988 RMK A01 T02250184  RH  078%=      5-min Rain = 0
KCL2 270646Z 16014G19KT 23/18 A2988 RMK A01 T02250184  RH  078%=      5-min Rain = 0
KCL2 270647Z 16013G19KT 23/18 A2988 RMK A01 T02250184  RH  078%=      5-min Rain = 0
KCL2 270648Z 17014KT 22/18 A2988 RMK A01 T02240184  RH  078%=      5-min Rain = 0
KCL2 270649Z 17014KT 22/18 A2988 RMK A01 T02240184  RH  078%=      5-min Rain = 0
KCL2 270650Z 17017KT 22/18 A2988 RMK A01 T02230184  RH  078%=      5-min Rain = 0
KCL2 270651Z 16014G19KT 22/18 A2988 RMK A01 T02240184  RH  078%=      5-min Rain = 0
KCL2 270652Z 17016KT 22/18 A2988 RMK A01 T02230184  RH  078%=      5-min Rain = 0
KCL2 270653Z 17016G21KT 22/18 A2988 RMK A01 T02230183  RH  078%=      5-min Rain = 0
KCL2 270654Z 17014G19KT 22/18 A2988 RMK A01 T02230183  RH  078%=      5-min Rain = 0
KCL2 270655Z 17016KT 22/18 A2988 RMK A01 T02230184  RH  078%=      5-min Rain = 0
KCL2 270656Z 17014G19KT 22/18 A2988 RMK A01 T02230184  RH  078%=      5-min Rain = 0
KCL2 270657Z 17014KT 22/18 A2988 RMK A01 T02230184  RH  078%=      5-min Rain = 0
KCL2 270658Z 17013G19KT 22/18 A2988 RMK A01 T02220183  RH  079%=      5-min Rain = 0
KCL2 270659Z 16014G19KT 22/18 A2988 RMK A01 T02220183  RH  079%=      5-min Rain = 0
KCL2 270700Z 17014G19KT 22/18 A2988 RMK A01 T02210183  RH  079%=      5-min Rain = 0
KCL2 270701Z 17014KT 22/18 A2988 RMK A01 T02220183  RH  079%=      5-min Rain = 0
KCL2 270702Z 17014KT 22/18 A2987 RMK A01 T02220183  RH  078%=      5-min Rain = 0
KCL2 270703Z 16014KT 22/18 A2988 RMK A01 T02220183  RH  078%=      5-min Rain = 0
KCL2 270704Z 17015KT 22/18 A2987 RMK A01 T02220183  RH  079%=      5-min Rain = 0
KCL2 270705Z 17014G20KT 22/18 A2987 RMK A01 T02220183  RH  078%=      5-min Rain = 0
KCL2 270706Z 17017KT 22/18 A2987 RMK A01 T02220183  RH  079%=      5-min Rain = 0
KCL2 270707Z 16015KT 22/18 A2987 RMK A01 T02220183  RH  078%=      5-min Rain = 0
KCL2 270708Z 17014KT 22/18 A2987 RMK A01 T02220183  RH  078%=      5-min Rain = 0
KCL2 270709Z 16013G18KT 22/18 A2987 RMK A01 T02210182  RH  078%=      5-min Rain = 0
KCL2 270710Z 17013G18KT 22/18 A2987 RMK A01 T02210183  RH  079%=      5-min Rain = 0
KCL2 270711Z 17014G19KT 22/18 A2987 RMK A01 T02210182  RH  079%=      5-min Rain = 0
KCL2 270712Z 16014KT 22/18 A2987 RMK A01 T02200182  RH  079%=      5-min Rain = 0
KCL2 270713Z 17015G20KT 22/18 A2987 RMK A01 T02210182  RH  079%=      5-min Rain = 0
KCL2 270714Z 17013KT 22/18 A2987 RMK A01 T02210182  RH  079%=      5-min Rain = 0
KCL2 270715Z 16015KT 22/18 A2987 RMK A01 T02210182  RH  079%=      5-min Rain = 0
KCL2 270716Z 17014KT 22/18 A2987 RMK A01 T02210182  RH  079%=      5-min Rain = 0
KCL2 270717Z 17015KT 22/18 A2987 RMK A01 T02210182  RH  079%=      5-min Rain = 0
KCL2 270718Z 17016KT 22/18 A2987 RMK A01 T02200181  RH  078%=      5-min Rain = 0
KCL2 270719Z 16014KT 22/18 A2987 RMK A01 T02200181  RH  078%=      5-min Rain = 0
KCL2 270720Z 17017G23KT 22/18 A2987 RMK A01 T02200181  RH  078%=      5-min Rain = 0
KCL2 270721Z 17013KT 22/18 A2987 RMK A01 T02210181  RH  078%=      5-min Rain = 0
KCL2 270722Z 17016KT 22/18 A2987 RMK A01 T02210181  RH  078%=      5-min Rain = 0
KCL2 270723Z 17017KT 22/18 A2987 RMK A01 T02210181  RH  078%=      5-min Rain = 0
KCL2 270724Z 17013KT 22/18 A2987 RMK A01 T02210181  RH  078%=      5-min Rain = 0
KCL2 270725Z 17015KT 22/18 A2987 RMK A01 T02210181  RH  078%=      5-min Rain = 0
KCL2 270726Z 17017G24KT 22/18 A2987 RMK A01 T02200181  RH  078%=      5-min Rain = 0
KCL2 270727Z 17016KT 22/18 A2987 RMK A01 T02200181  RH  078%=      5-min Rain = 0
KCL2 270728Z 17016KT 22/18 A2987 RMK A01 T02200181  RH  078%=      5-min Rain = 0
KCL2 270729Z 17013KT 22/18 A2987 RMK A01 T02200181  RH  079%=      5-min Rain = 0
KCL2 270730Z 17016KT 22/18 A2987 RMK A01 T02190181  RH  079%=      5-min Rain = 0
KCL2 270731Z 17017G24KT 22/18 A2987 RMK A01 T02190181  RH  079%=      5-min Rain = 0
KCL2 270732Z 17017KT 22/18 A2987 RMK A01 T02190181  RH  079%=      5-min Rain = 0
KCL2 270733Z 17013G20KT 22/18 A2987 RMK A01 T02190181  RH  079%=      5-min Rain = 0
KCL2 270734Z 17016KT 22/18 A2987 RMK A01 T02190181  RH  079%=      5-min Rain = 0
KCL2 270735Z 17014KT 22/18 A2987 RMK A01 T02190181  RH  079%=      5-min Rain = 0
KCL2 270736Z 17020G28KT 22/18 A2986 RMK A01 T02190181  RH  079%=      5-min Rain = 0
KCL2 270737Z 17017KT 22/18 A2987 RMK A01 T02190180  RH  078%=      5-min Rain = 0
KCL2 270738Z 17018G23KT 22/18 A2986 RMK A01 T02200180  RH  078%=      5-min Rain = 0
KCL2 270739Z 17016KT 22/18 A2986 RMK A01 T02200180  RH  078%=      5-min Rain = 0
KCL2 270740Z 17015G21KT 22/18 A2986 RMK A01 T02200180  RH  078%=      5-min Rain = 0
KCL2 270741Z 17018G23KT 22/18 A2986 RMK A01 T02190181  RH  079%=      5-min Rain = 0
KCL2 270742Z 16015KT 22/18 A2986 RMK A01 T02190181  RH  079%=      5-min Rain = 0
KCL2 270743Z 16015KT 22/18 A2986 RMK A01 T02190180  RH  079%=      5-min Rain = 0
KCL2 270744Z 17015KT 22/18 A2986 RMK A01 T02180180  RH  079%=      5-min Rain = 0
KCL2 270745Z 16014KT 22/18 A2986 RMK A01 T02180180  RH  079%=      5-min Rain = 0
KCL2 270746Z 17016KT 22/18 A2986 RMK A01 T02180180  RH  079%=      5-min Rain = 0
KCL2 270747Z 17020G26KT 22/18 A2986 RMK A01 T02180180  RH  079%=      5-min Rain = 0
KCL2 270748Z 17018G23KT 22/18 A2986 RMK A01 T02180180  RH  079%=      5-min Rain = 0
KCL2 270749Z 17017KT 22/18 A2986 RMK A01 T02180180  RH  079%=      5-min Rain = 0
KCL2 270750Z 17019G24KT 22/18 A2986 RMK A01 T02180180  RH  079%=      5-min Rain = 0
KCL2 270751Z 17020G26KT 22/18 A2986 RMK A01 T02180180  RH  079%=      5-min Rain = 0
KCL2 270752Z 16019G25KT 22/18 A2986 RMK A01 T02180179  RH  079%=      5-min Rain = 0
KCL2 270753Z 17018KT 22/18 A2986 RMK A01 T02180179  RH  079%=      5-min Rain = 0
KCL2 270754Z 16018KT 22/18 A2986 RMK A01 T02180180  RH  079%=      5-min Rain = 0
KCL2 270755Z 17019KT 22/18 A2986 RMK A01 T02180180  RH  079%=      5-min Rain = 0
KCL2 270756Z 17019KT 22/18 A2986 RMK A01 T02180180  RH  079%=      5-min Rain = 0
KCL2 270757Z 16017KT 22/18 A2986 RMK A01 T02180180  RH  079%=      5-min Rain = 0
KCL2 270758Z 17016KT 22/18 A2986 RMK A01 T02180180  RH  079%=      5-min Rain = 0
KCL2 270759Z 17018KT 22/18 A2986 RMK A01 T02170179  RH  079%=      5-min Rain = 0
KCL2 270800Z 17020KT 22/18 A2986 RMK A01 T02170179  RH  079%=      5-min Rain = 0
KCL2 270801Z 17017G23KT 22/18 A2986 RMK A01 T02170179  RH  079%=      5-min Rain = 0
KCL2 270802Z 17019KT 22/18 A2986 RMK A01 T02180179  RH  079%=      5-min Rain = 0
KCL2 270803Z 17019KT 22/18 A2986 RMK A01 T02170179  RH  079%=      5-min Rain = 0
KCL2 270804Z 17021G27KT 22/18 A2986 RMK A01 T02170179  RH  079%=      5-min Rain = 0
KCL2 270805Z 17018G23KT 22/18 A2986 RMK A01 T02170179  RH  079%=      5-min Rain = 0
KCL2 270806Z 17018G25KT 22/18 A2986 RMK A01 T02170179  RH  079%=      5-min Rain = 0
KCL2 270807Z 17018KT 22/18 A2986 RMK A01 T02170179  RH  079%=      5-min Rain = 0
KCL2 270808Z 17017G22KT 22/18 A2986 RMK A01 T02170179  RH  079%=      5-min Rain = 0
KCL2 270809Z 17017KT 22/18 A2986 RMK A01 T02160179  RH  079%=      5-min Rain = 0
KCL2 270810Z 17017G23KT 22/18 A2986 RMK A01 T02160179  RH  079%=      5-min Rain = 0
KCL2 270811Z 17020G25KT 22/18 A2986 RMK A01 T02160179  RH  080%=      5-min Rain = 0
KCL2 270812Z 17017G22KT 22/18 A2986 RMK A01 T02160179  RH  079%=      5-min Rain = 0
KCL2 270813Z 17017G23KT 22/18 A2986 RMK A01 T02160179  RH  079%=      5-min Rain = 0
KCL2 270814Z 17018KT 22/18 A2986 RMK A01 T02150178  RH  079%=      5-min Rain = 0
KCL2 270815Z 17016KT 22/18 A2986 RMK A01 T02160179  RH  079%=      5-min Rain = 0
KCL2 270816Z 17017G22KT 22/18 A2986 RMK A01 T02160179  RH  080%=      5-min Rain = 0
KCL2 270817Z 17021KT 22/18 A2985 RMK A01 T02150179  RH  080%=      5-min Rain = 0
KCL2 270818Z 17017KT 22/18 A2985 RMK A01 T02150178  RH  080%=      5-min Rain = 0
KCL2 270819Z 17017G23KT 22/18 A2986 RMK A01 T02150178  RH  080%=      5-min Rain = 0
KCL2 270820Z 17019G28KT 22/18 A2985 RMK A01 T02150179  RH  080%=      5-min Rain = 0
KCL2 270821Z 17019KT 22/18 A2985 RMK A01 T02150179  RH  080%=      5-min Rain = 0
KCL2 270822Z 17018G25KT 22/18 A2985 RMK A01 T02150179  RH  080%=      5-min Rain = 0
KCL2 270823Z 17019KT 21/18 A2985 RMK A01 T02140179  RH  080%=      5-min Rain = 0
KCL2 270824Z 17016KT 21/18 A2985 RMK A01 T02140179  RH  080%=      5-min Rain = 0
KCL2 270825Z 17020KT 21/18 A2985 RMK A01 T02140178  RH  080%=      5-min Rain = 0
KCL2 270826Z 17019KT 21/18 A2985 RMK A01 T02140178  RH  080%=      5-min Rain = 0
KCL2 270827Z 17018KT 21/18 A2985 RMK A01 T02140178  RH  080%=      5-min Rain = 0
KCL2 270828Z 17017G22KT 21/18 A2985 RMK A01 T02140178  RH  080%=      5-min Rain = 0
KCL2 270829Z 17019KT 21/18 A2985 RMK A01 T02140179  RH  080%=      5-min Rain = 0
KCL2 270830Z 17017KT 21/18 A2985 RMK A01 T02140178  RH  080%=      5-min Rain = 0
KCL2 270831Z 17018G23KT 21/18 A2985 RMK A01 T02140178  RH  080%=      5-min Rain = 0
KCL2 270832Z 17017G23KT 21/18 A2985 RMK A01 T02140178  RH  080%=      5-min Rain = 0
KCL2 270833Z 17019G25KT 21/18 A2985 RMK A01 T02130178  RH  080%=      5-min Rain = 0
KCL2 270834Z 17019KT 21/18 A2985 RMK A01 T02130178  RH  080%=      5-min Rain = 0
KCL2 270835Z 17021KT 21/18 A2985 RMK A01 T02130178  RH  080%=      5-min Rain = 0
KCL2 270836Z 17019G26KT 21/18 A2985 RMK A01 T02130178  RH  080%=      5-min Rain = 0
KCL2 270837Z 17018G23KT 21/18 A2985 RMK A01 T02130178  RH  080%=      5-min Rain = 0
KCL2 270838Z 17015G21KT 21/18 A2985 RMK A01 T02130178  RH  080%=      5-min Rain = 0
KCL2 270839Z 17016KT 21/18 A2985 RMK A01 T02130178  RH  081%=      5-min Rain = 0
KCL2 270840Z 17017KT 21/18 A2985 RMK A01 T02120178  RH  081%=      5-min Rain = 0
KCL2 270841Z 18020G27KT 21/18 A2985 RMK A01 T02120178  RH  081%=      5-min Rain = 0
KCL2 270842Z 17018KT 21/18 A2985 RMK A01 T02120178  RH  081%=      5-min Rain = 0
KCL2 270843Z 18019G24KT 21/18 A2985 RMK A01 T02120178  RH  081%=      5-min Rain = 0
KCL2 270844Z 17020G27KT 21/18 A2985 RMK A01 T02130178  RH  081%=      5-min Rain = 0
KCL2 270845Z 17019G26KT 21/18 A2985 RMK A01 T02130178  RH  080%=      5-min Rain = 0
KCL2 270846Z 17018G24KT 21/18 A2985 RMK A01 T02130178  RH  081%=      5-min Rain = 0
KCL2 270847Z 17016G21KT 21/18 A2985 RMK A01 T02130178  RH  081%=      5-min Rain = 0
KCL2 270848Z 17015G21KT 21/18 A2985 RMK A01 T02120178  RH  081%=      5-min Rain = 0
KCL2 270849Z 17017KT 21/18 A2985 RMK A01 T02120178  RH  081%=      5-min Rain = 0
KCL2 270850Z 17019G24KT 21/18 A2985 RMK A01 T02110178  RH  081%=      5-min Rain = 0
KCL2 270851Z 17019G24KT 21/18 A2985 RMK A01 T02110178  RH  081%=      5-min Rain = 0
KCL2 270852Z 17019G25KT 21/18 A2985 RMK A01 T02110178  RH  081%=      5-min Rain = 0
KCL2 270853Z 17017G22KT 21/18 A2985 RMK A01 T02110178  RH  081%=      5-min Rain = 0
KCL2 270854Z 17017G22KT 21/18 A2985 RMK A01 T02110178  RH  081%=      5-min Rain = 0
KCL2 270855Z 17017G23KT 21/18 A2985 RMK A01 T02110178  RH  081%=      5-min Rain = 0
KCL2 270856Z 17020G27KT 21/18 A2985 RMK A01 T02110178  RH  081%=      5-min Rain = 0
KCL2 270857Z 17018G24KT 21/18 A2985 RMK A01 T02110178  RH  081%=      5-min Rain = 0
KCL2 270858Z 17018G26KT 21/18 A2985 RMK A01 T02110178  RH  081%=      5-min Rain = 0
KCL2 270859Z 17020G26KT 21/18 A2985 RMK A01 T02110178  RH  082%=      5-min Rain = 0
KCL2 270900Z 17017KT 21/18 A2985 RMK A01 T02100178  RH  082%=      5-min Rain = 0
KCL2 270901Z 17018KT 21/18 A2985 RMK A01 T02110178  RH  081%=      5-min Rain = 0
KCL2 270902Z 17020G28KT 21/18 A2985 RMK A01 T02100178  RH  081%=      5-min Rain = 0
KCL2 270903Z 17018KT 21/18 A2985 RMK A01 T02100177  RH  081%=      5-min Rain = 0
KCL2 270904Z 17018G25KT 21/18 A2985 RMK A01 T02100178  RH  081%=      5-min Rain = 0
KCL2 270905Z 17017G22KT 21/18 A2985 RMK A01 T02100178  RH  082%=      5-min Rain = 0
KCL2 270906Z 16016KT 21/18 A2985 RMK A01 T02100178  RH  082%=      5-min Rain = 0
KCL2 270907Z 17018KT 21/18 A2985 RMK A01 T02100178  RH  082%=      5-min Rain = 0
KCL2 270908Z 17016G23KT 21/18 A2985 RMK A01 T02100178  RH  082%=      5-min Rain = 0
KCL2 270909Z 17019G27KT 21/18 A2985 RMK A01 T02100178  RH  082%=      5-min Rain = 0
KCL2 270910Z 17019KT 21/18 A2985 RMK A01 T02090178  RH  082%=      5-min Rain = 0
KCL2 270911Z 17017G24KT 21/18 A2985 RMK A01 T02100178  RH  082%=      5-min Rain = 0
KCL2 270912Z 17017G23KT 21/18 A2985 RMK A01 T02100178  RH  082%=      5-min Rain = 0
KCL2 270913Z 17018KT 21/18 A2985 RMK A01 T02100178  RH  082%=      5-min Rain = 0
KCL2 270914Z 17019KT 21/18 A2985 RMK A01 T02100178  RH  082%=      5-min Rain = 0
KCL2 270915Z 17020G27KT 21/18 A2985 RMK A01 T02090178  RH  082%=      5-min Rain = 0
KCL2 270916Z 17019G27KT 21/18 A2985 RMK A01 T02100178  RH  082%=      5-min Rain = 0
KCL2 270917Z 17019KT 21/18 A2985 RMK A01 T02100178  RH  082%=      5-min Rain = 0
KCL2 270918Z 18021KT 21/18 A2985 RMK A01 T02100178  RH  082%=      5-min Rain = 0
KCL2 270919Z 18020KT 21/18 A2985 RMK A01 T02100178  RH  082%=      5-min Rain = 0
KCL2 270920Z 17019KT 21/18 A2985 RMK A01 T02100178  RH  082%=      5-min Rain = 0
KCL2 270921Z 17018KT 21/18 A2985 RMK A01 T02100178  RH  082%=      5-min Rain = 0
KCL2 270922Z 17015G22KT 21/18 A2985 RMK A01 T02100178  RH  082%=      5-min Rain = 0
KCL2 270923Z 17018KT 21/18 A2985 RMK A01 T02090178  RH  082%=      5-min Rain = 0
KCL2 270924Z 17016G21KT 21/18 A2985 RMK A01 T02090178  RH  083%=      5-min Rain = 0
KCL2 270925Z 17016G21KT 21/18 A2985 RMK A01 T02090178  RH  083%=      5-min Rain = 0
KCL2 270926Z 17020KT 21/18 A2985 RMK A01 T02080178  RH  083%=      5-min Rain = 0
KCL2 270927Z 16019G24KT 21/18 A2985 RMK A01 T02080178  RH  083%=      5-min Rain = 0
KCL2 270928Z 17016KT 21/18 A2985 RMK A01 T02080178  RH  083%=      5-min Rain = 0
KCL2 270929Z 17019G28KT 21/18 A2985 RMK A01 T02080178  RH  083%=      5-min Rain = 0
KCL2 270930Z 17019G26KT 21/18 A2985 RMK A01 T02080178  RH  083%=      5-min Rain = 0
KCL2 270931Z 17016G21KT 21/18 A2985 RMK A01 T02080178  RH  083%=      5-min Rain = 0
KCL2 270932Z 17019G24KT 21/18 A2985 RMK A01 T02080178  RH  083%=      5-min Rain = 0
KCL2 270933Z 17017G22KT 21/18 A2985 RMK A01 T02080178  RH  083%=      5-min Rain = 0
KCL2 270934Z 18022KT 21/18 A2985 RMK A01 T02080178  RH  083%=      5-min Rain = 0
KCL2 270935Z 18020KT 21/18 A2985 RMK A01 T02080178  RH  083%=      5-min Rain = 0
KCL2 270936Z 17016G21KT 21/18 A2986 RMK A01 T02080178  RH  083%=      5-min Rain = 0
KCL2 270937Z 17018KT 21/18 A2986 RMK A01 T02090178  RH  083%=      5-min Rain = 0
KCL2 270938Z 17016KT 21/18 A2986 RMK A01 T02090178  RH  083%=      5-min Rain = 0
KCL2 270939Z 18017KT 21/18 A2986 RMK A01 T02080178  RH  083%=      5-min Rain = 0
KCL2 270940Z 17019G25KT 21/18 A2986 RMK A01 T02080178  RH  083%=      5-min Rain = 0
KCL2 270941Z 17018KT 21/18 A2986 RMK A01 T02080178  RH  083%=      5-min Rain = 0
KCL2 270942Z 17019KT 21/18 A2986 RMK A01 T02080178  RH  083%=      5-min Rain = 0
KCL2 270943Z 18019KT 21/18 A2986 RMK A01 T02080179  RH  083%=      5-min Rain = 0
KCL2 270944Z 17020KT 21/18 A2986 RMK A01 T02070178  RH  083%=      5-min Rain = 0
KCL2 270945Z 17021G26KT 21/18 A2985 RMK A01 T02070178  RH  083%=      5-min Rain = 0
KCL2 270946Z 17021G26KT 21/18 A2985 RMK A01 T02070178  RH  083%=      5-min Rain = 0
KCL2 270947Z 17019KT 21/18 A2986 RMK A01 T02080178  RH  083%=      5-min Rain = 0
KCL2 270948Z 18017KT 21/18 A2986 RMK A01 T02080178  RH  083%=      5-min Rain = 0
KCL2 270949Z 17017KT 21/18 A2986 RMK A01 T02070178  RH  083%=      5-min Rain = 0
KCL2 270950Z 17020G28KT 21/18 A2986 RMK A01 T02060178  RH  084%=      5-min Rain = 0
KCL2 270951Z 17018G26KT 21/18 A2986 RMK A01 T02060178  RH  084%=      5-min Rain = 0
KCL2 270952Z 17020G25KT 21/18 A2986 RMK A01 T02060178  RH  084%=      5-min Rain = 0
KCL2 270953Z 17021KT 21/18 A2986 RMK A01 T02060177  RH  084%=      5-min Rain = 0
KCL2 270954Z 17020G28KT 21/18 A2986 RMK A01 T02060177  RH  083%=      5-min Rain = 0
KCL2 270955Z 17021KT 21/18 A2986 RMK A01 T02060177  RH  083%=      5-min Rain = 0
KCL2 270956Z 17017G27KT 21/18 A2986 RMK A01 T02060177  RH  083%=      5-min Rain = 0
KCL2 270957Z 17017G25KT 21/18 A2986 RMK A01 T02060178  RH  084%=      5-min Rain = 0
KCL2 270958Z 18015G21KT 21/18 A2986 RMK A01 T02060178  RH  084%=      5-min Rain = 0
KCL2 270959Z 17020G25KT 21/18 A2986 RMK A01 T02050177  RH  084%=      5-min Rain = 0
KCL2 271000Z 17018G25KT 21/18 A2986 RMK A01 T02050177  RH  084%=      5-min Rain = 0
KCL2 271001Z 17018KT 21/18 A2985 RMK A01 T02050177  RH  084%=      5-min Rain = 0
KCL2 271002Z 17020G25KT 21/18 A2986 RMK A01 T02050177  RH  084%=      5-min Rain = 0
KCL2 271003Z 18018G24KT 21/18 A2986 RMK A01 T02050177  RH  084%=      5-min Rain = 0
KCL2 271004Z 17020G27KT 21/18 A2986 RMK A01 T02050177  RH  084%=      5-min Rain = 0
KCL2 271005Z 17022G31KT 21/18 A2986 RMK A01 T02050177  RH  084%=      5-min Rain = 0
KCL2 271006Z 17020G26KT 21/18 A2986 RMK A01 T02050176  RH  083%=      5-min Rain = 0
KCL2 271007Z 18020G25KT 21/18 A2986 RMK A01 T02050176  RH  083%=      5-min Rain = 0
KCL2 271008Z 17018G25KT 21/18 A2986 RMK A01 T02050176  RH  083%=      5-min Rain = 0
KCL2 271009Z 18019G24KT 21/18 A2986 RMK A01 T02050176  RH  084%=      5-min Rain = 0
KCL2 271010Z 18020G26KT 21/18 A2986 RMK A01 T02050176  RH  084%=      5-min Rain = 0
KCL2 271011Z 18017G23KT 21/18 A2986 RMK A01 T02050176  RH  084%=      5-min Rain = 0
KCL2 271012Z 18019KT 20/18 A2986 RMK A01 T02040176  RH  084%=      5-min Rain = 0
KCL2 271013Z 17022G30KT 20/18 A2986 RMK A01 T02040176  RH  084%=      5-min Rain = 0
KCL2 271014Z 18022G29KT 20/18 A2986 RMK A01 T02040176  RH  084%=      5-min Rain = 0
KCL2 271015Z 18019G24KT 20/18 A2986 RMK A01 T02040175  RH  084%=      5-min Rain = 0
KCL2 271016Z 18019G27KT 20/18 A2986 RMK A01 T02040176  RH  084%=      5-min Rain = 0
KCL2 271017Z 18021KT 20/18 A2986 RMK A01 T02040176  RH  084%=      5-min Rain = 0
KCL2 271018Z 18020G27KT 20/18 A2986 RMK A01 T02030175  RH  084%=      5-min Rain = 0
KCL2 271019Z 17019KT 20/18 A2986 RMK A01 T02040176  RH  084%=      5-min Rain = 0
KCL2 271020Z 18017G23KT 20/18 A2986 RMK A01 T02040176  RH  084%=      5-min Rain = 0
KCL2 271021Z 18018G27KT 20/18 A2986 RMK A01 T02040175  RH  084%=      5-min Rain = 0
KCL2 271022Z 17021G27KT 20/18 A2986 RMK A01 T02030175  RH  084%=      5-min Rain = 0
KCL2 271023Z 17020G26KT 20/18 A2986 RMK A01 T02030175  RH  084%=      5-min Rain = 0
KCL2 271024Z 18019G27KT 20/18 A2986 RMK A01 T02030175  RH  084%=      5-min Rain = 0
KCL2 271025Z 18018KT 20/18 A2986 RMK A01 T02030175  RH  084%=      5-min Rain = 0
KCL2 271026Z 17019G25KT 20/18 A2986 RMK A01 T02030175  RH  084%=      5-min Rain = 0
KCL2 271027Z 18018G25KT 20/18 A2986 RMK A01 T02020175  RH  084%=      5-min Rain = 0
KCL2 271028Z 18017G24KT 20/18 A2986 RMK A01 T02020175  RH  084%=      5-min Rain = 0
KCL2 271029Z 17018KT 20/18 A2985 RMK A01 T02020175  RH  084%=      5-min Rain = 0
KCL2 271030Z 18019G24KT 20/18 A2986 RMK A01 T02020175  RH  084%=      5-min Rain = 0
KCL2 271031Z 18022G28KT 20/17 A2985 RMK A01 T02010174  RH  084%=      5-min Rain = 0
KCL2 271032Z 18021G26KT 20/17 A2986 RMK A01 T02020174  RH  084%=      5-min Rain = 0
KCL2 271033Z 18020G25KT 20/17 A2986 RMK A01 T02020174  RH  084%=      5-min Rain = 0
KCL2 271034Z 18019G24KT 20/18 A2986 RMK A01 T02020175  RH  084%=      5-min Rain = 0
KCL2 271035Z 18019KT 20/18 A2986 RMK A01 T02020175  RH  084%=      5-min Rain = 0
KCL2 271036Z 17018G26KT 20/17 A2986 RMK A01 T02010174  RH  085%=      5-min Rain = 0
KCL2 271037Z 18020KT 20/17 A2986 RMK A01 T02010174  RH  085%=      5-min Rain = 0
KCL2 271038Z 18023G31KT 20/17 A2986 RMK A01 T02010174  RH  085%=      5-min Rain = 0
KCL2 271039Z 18018KT 20/17 A2986 RMK A01 T02010174  RH  084%=      5-min Rain = 0
KCL2 271040Z 17019G25KT 20/17 A2986 RMK A01 T02010174  RH  084%=      5-min Rain = 0
KCL2 271041Z 18023G28KT 20/17 A2986 RMK A01 T02000174  RH  085%=      5-min Rain = 0
KCL2 271042Z 18021G26KT 20/17 A2986 RMK A01 T02000174  RH  085%=      5-min Rain = 0
KCL2 271043Z 18020G27KT 20/17 A2986 RMK A01 T02000174  RH  085%=      5-min Rain = 0
KCL2 271044Z 18021KT 20/17 A2986 RMK A01 T02000174  RH  085%=      5-min Rain = 0
KCL2 271045Z 18020G25KT 20/17 A2986 RMK A01 T02010174  RH  085%=      5-min Rain = 0
KCL2 271046Z 18019KT 20/17 A2986 RMK A01 T02000174  RH  085%=      5-min Rain = 0
KCL2 271047Z 18019KT 20/17 A2986 RMK A01 T02000174  RH  085%=      5-min Rain = 0
KCL2 271048Z 17020KT 20/17 A2986 RMK A01 T02000174  RH  085%=      5-min Rain = 0
KCL2 271049Z 18017KT 20/17 A2986 RMK A01 T02000174  RH  085%=      5-min Rain = 0
KCL2 271050Z 17018G24KT 20/17 A2986 RMK A01 T02000174  RH  085%=      5-min Rain = 0
KCL2 271051Z 17018G23KT 20/17 A2986 RMK A01 T01990174  RH  085%=      5-min Rain = 0
KCL2 271052Z 18023G30KT 20/17 A2986 RMK A01 T01990174  RH  085%=      5-min Rain = 0
KCL2 271053Z 18017KT 20/17 A2986 RMK A01 T01990174  RH  085%=      5-min Rain = 0
KCL2 271054Z 18017KT 20/17 A2986 RMK A01 T01990174  RH  085%=      5-min Rain = 0
KCL2 271055Z 18018G24KT 20/17 A2986 RMK A01 T01990174  RH  085%=      5-min Rain = 0
KCL2 271056Z 18021G27KT 20/17 A2986 RMK A01 T01990174  RH  085%=      5-min Rain = 0
KCL2 271057Z 18019G24KT 20/17 A2986 RMK A01 T01990174  RH  085%=      5-min Rain = 0
KCL2 271058Z 18018KT 20/17 A2987 RMK A01 T01990174  RH  085%=      5-min Rain = 0
KCL2 271059Z 18016KT 20/17 A2987 RMK A01 T01990174  RH  086%=      5-min Rain = 0
KCL2 271100Z 18016G21KT 20/17 A2987 RMK A01 T01980174  RH  086%=      5-min Rain = 0
KCL2 271101Z 19017G24KT 20/17 A2988 RMK A01 T01980174  RH  086%=      5-min Rain = 0
KCL2 271102Z 19018KT 20/17 A2988 RMK A01 T01980174  RH  086%=      5-min Rain = 0
KCL2 271103Z 19018G26KT 20/17 A2989 RMK A01 T01980174  RH  086%=      5-min Rain = 0
KCL2 271104Z 20015G20KT 20/17 A299 RMK A01 T01990174  RH  086%=      5-min Rain = 0
KCL2 271105Z 21014G19KT 20/17 A2991 RMK A01 T01990174  RH  085%=      5-min Rain = 0
KCL2 271106Z 23011G16KT 20/17 A2992 RMK A01 T01990174  RH  085%=      5-min Rain = 0
KCL2 271107Z 24012KT 20/17 A2993 RMK A01 T01990174  RH  085%=      5-min Rain = 0
KCL2 271108Z 25010G16KT 20/18 A2993 RMK A01 T02000175  RH  086%=      5-min Rain = 0
KCL2 271109Z 26010KT 20/18 A2994 RMK A01 T01990175  RH  086%=      5-min Rain = 0
KCL2 271110Z 25010KT 20/18 A2994 RMK A01 T01990175  RH  086%=      5-min Rain = 0
KCL2 271111Z 24010KT 20/18 A2994 RMK A01 T01990175  RH  086%=      5-min Rain = 0
KCL2 271112Z 24010KT 20/18 A2994 RMK A01 T02000175  RH  086%=      5-min Rain = 0
KCL2 271113Z 22008KT 20/18 A2993 RMK A01 T02000175  RH  086%=      5-min Rain = 0
KCL2 271114Z 21009KT 20/18 A2993 RMK A01 T02000175  RH  086%=      5-min Rain = 0
KCL2 271115Z 20010KT 20/18 A2992 RMK A01 T02000176  RH  086%=      5-min Rain = 0
KCL2 271116Z 19012G18KT 20/18 A2992 RMK A01 T02000175  RH  086%=      5-min Rain = 0
KCL2 271117Z 19016KT 20/18 A2991 RMK A01 T02000175  RH  085%=      5-min Rain = 0
KCL2 271118Z 18014KT 20/17 A2991 RMK A01 T02000174  RH  085%=      5-min Rain = 0
KCL2 271119Z 18010KT 20/17 A2991 RMK A01 T02000174  RH  085%=      5-min Rain = 0
KCL2 271120Z 19013KT 20/18 A2991 RMK A01 T02000175  RH  086%=      5-min Rain = 0
KCL2 271121Z 20013KT 20/18 A2991 RMK A01 T01990175  RH  086%=      5-min Rain = 0
KCL2 271122Z 19011KT 20/18 A2992 RMK A01 T01990175  RH  086%=      5-min Rain = 0
KCL2 271123Z 21008KT 20/18 A2992 RMK A01 T02000175  RH  086%=      5-min Rain = 0
KCL2 271124Z 22009KT 20/18 A2993 RMK A01 T01990175  RH  086%=      5-min Rain = 0
KCL2 271125Z 22008KT 20/18 A2993 RMK A01 T01990175  RH  086%=      5-min Rain = 0
KCL2 271126Z 23010KT 20/18 A2994 RMK A01 T01990176  RH  086%=      5-min Rain = 0
KCL2 271127Z 23010KT 20/18 A2994 RMK A01 T01990176  RH  086%=      5-min Rain = 0
KCL2 271128Z 22010KT 20/18 A2994 RMK A01 T02000176  RH  086%=      5-min Rain = 0
KCL2 271129Z 23008KT 20/18 A2994 RMK A01 T02000175  RH  086%=      5-min Rain = 0
KCL2 271130Z 22008KT 20/18 A2994 RMK A01 T02000176  RH  086%=      5-min Rain = 0
KCL2 271131Z 21007KT 20/18 A2994 RMK A01 T02000175  RH  086%=      5-min Rain = 0
KCL2 271132Z 20008KT 20/18 A2993 RMK A01 T02000176  RH  086%=      5-min Rain = 0
KCL2 271133Z 18008KT 20/18 A2993 RMK A01 T02000176  RH  086%=      5-min Rain = 0
KCL2 271134Z 19012KT 20/18 A2993 RMK A01 T02000176  RH  086%=      5-min Rain = 0
KCL2 271135Z 18014KT 20/18 A2993 RMK A01 T02000175  RH  086%=      5-min Rain = 0
KCL2 271136Z 19014KT 20/18 A2993 RMK A01 T02000175  RH  086%=      5-min Rain = 0
KCL2 271137Z 20011KT 20/18 A2993 RMK A01 T02000175  RH  086%=      5-min Rain = 0
KCL2 271138Z 20012KT 20/18 A2993 RMK A01 T02000175  RH  086%=      5-min Rain = 0
KCL2 271139Z 21012KT 20/18 A2993 RMK A01 T02000176  RH  086%=      5-min Rain = 0
KCL2 271140Z 19011KT 20/18 A2993 RMK A01 T02000176  RH  086%=      5-min Rain = 0
KCL2 271141Z 19013KT 20/18 A2993 RMK A01 T02000176  RH  086%=      5-min Rain = 0
KCL2 271142Z 19018KT 20/18 A2993 RMK A01 T02000175  RH  086%=      5-min Rain = 0
KCL2 271143Z 19014KT 20/18 A2993 RMK A01 T02000175  RH  085%=      5-min Rain = 0
KCL2 271144Z 19013KT 20/18 A2993 RMK A01 T02010175  RH  085%=      5-min Rain = 0
KCL2 271145Z 19015KT 20/18 A2993 RMK A01 T02010176  RH  085%=      5-min Rain = 0
KCL2 271146Z 19016KT 20/18 A2993 RMK A01 T02010176  RH  085%=      5-min Rain = 0
KCL2 271147Z 19017KT 20/18 A2992 RMK A01 T02000175  RH  085%=      5-min Rain = 0
KCL2 271148Z 18015KT 20/18 A2992 RMK A01 T02000175  RH  085%=      5-min Rain = 0
KCL2 271149Z 18017KT 20/18 A2992 RMK A01 T02000175  RH  086%=      5-min Rain = 0
KCL2 271150Z 18017KT 20/18 A2992 RMK A01 T02000175  RH  086%=      5-min Rain = 0
KCL2 271151Z 18019KT 20/18 A2991 RMK A01 T01990175  RH  086%=      5-min Rain = 0
KCL2 271152Z 18017KT 20/18 A2991 RMK A01 T01990175  RH  086%=      5-min Rain = 0
KCL2 271153Z 18014G20KT 20/18 A2991 RMK A01 T01990175  RH  086%=      5-min Rain = 0
KCL2 271154Z 18015G21KT 20/18 A2992 RMK A01 T01990175  RH  086%=      5-min Rain = 0
KCL2 271155Z 18018KT 20/18 A2992 RMK A01 T01990175  RH  086%=      5-min Rain = 0
KCL2 271156Z 19013KT 20/18 A2992 RMK A01 T01990175  RH  086%=      5-min Rain = 0
KCL2 271157Z 18013KT 20/18 A2992 RMK A01 T01980175  RH  086%=      5-min Rain = 0
KCL2 271158Z 19012KT 20/18 A2992 RMK A01 T01980175  RH  086%=      5-min Rain = 0
KCL2 271159Z 19010G15KT 20/18 A2993 RMK A01 T01980175  RH  086%=      5-min Rain = 0
KCL2 271200Z 20010KT 20/18 A2993 RMK A01 T01980175  RH  086%=      5-min Rain = 0
KCL2 271201Z 20008KT 20/18 A2993 RMK A01 T01980175  RH  086%=      5-min Rain = 0
KCL2 271202Z 20008KT 20/18 A2994 RMK A01 T01980175  RH  087%=      5-min Rain = 0
KCL2 271203Z 20010KT 20/18 A2994 RMK A01 T01980175  RH  087%=      5-min Rain = 0
KCL2 271204Z 21007KT 20/18 A2994 RMK A01 T01980175  RH  087%=      5-min Rain = 0
KCL2 271205Z 20008KT 20/18 A2994 RMK A01 T01980175  RH  087%=      5-min Rain = 0
KCL2 271206Z 18005KT 20/18 A2994 RMK A01 T01980175  RH  087%=      5-min Rain = 0
KCL2 271207Z 17007G12KT 20/18 A2994 RMK A01 T01980175  RH  087%=      5-min Rain = 0
KCL2 271208Z 17008KT 20/18 A2994 RMK A01 T01980175  RH  086%=      5-min Rain = 0
KCL2 271209Z 18008KT 20/18 A2993 RMK A01 T01980175  RH  086%=      5-min Rain = 0
KCL2 271210Z 18010KT 20/18 A2993 RMK A01 T01980175  RH  086%=      5-min Rain = 0
KCL2 271211Z 18010KT 20/18 A2993 RMK A01 T01980175  RH  087%=      5-min Rain = 0
KCL2 271212Z 17008KT 20/18 A2993 RMK A01 T01980175  RH  087%=      5-min Rain = 0
KCL2 271213Z 17009KT 20/18 A2993 RMK A01 T01980175  RH  087%=      5-min Rain = 0
KCL2 271214Z 18009KT 20/18 A2993 RMK A01 T01980175  RH  087%=      5-min Rain = 0
KCL2 271215Z 17007KT 20/18 A2994 RMK A01 T01980175  RH  087%=      5-min Rain = 0
KCL2 271216Z 18008KT 20/18 A2994 RMK A01 T01980175  RH  087%=      5-min Rain = 0
KCL2 271217Z 18009KT 20/18 A2994 RMK A01 T01980175  RH  087%=      5-min Rain = 0
KCL2 271218Z 18011KT 20/18 A2994 RMK A01 T01980176  RH  087%=      5-min Rain = 0
KCL2 271219Z 18010KT 20/18 A2994 RMK A01 T01980176  RH  087%=      5-min Rain = 0
KCL2 271220Z 18009KT 20/18 A2994 RMK A01 T01980175  RH  087%=      5-min Rain = 0
KCL2 271221Z 19009KT 20/18 A2994 RMK A01 T01980175  RH  087%=      5-min Rain = 0
KCL2 271222Z 18010KT 20/18 A2994 RMK A01 T01980175  RH  087%=      5-min Rain = 0
KCL2 271223Z 17008KT 20/18 A2994 RMK A01 T01980175  RH  087%=      5-min Rain = 0
KCL2 271224Z 17008KT 20/18 A2994 RMK A01 T01980176  RH  087%=      5-min Rain = 0
KCL2 271225Z 18010KT 20/18 A2994 RMK A01 T01980176  RH  087%=      5-min Rain = 0
KCL2 271226Z 18011KT 20/18 A2993 RMK A01 T01970176  RH  087%=      5-min Rain = 0
KCL2 271227Z 18009KT 20/18 A2993 RMK A01 T01980176  RH  087%=      5-min Rain = 0
KCL2 271228Z 18013KT 20/18 A2993 RMK A01 T01980176  RH  087%=      5-min Rain = 0
KCL2 271229Z 18013KT 20/18 A2993 RMK A01 T01980175  RH  087%=      5-min Rain = 0
KCL2 271230Z 18014KT 20/18 A2993 RMK A01 T01980176  RH  087%=      5-min Rain = 0
KCL2 271231Z 18012KT 20/18 A2993 RMK A01 T01980175  RH  087%=      5-min Rain = 0
KCL2 271232Z 18015KT 20/18 A2993 RMK A01 T01980175  RH  087%=      5-min Rain = 0
KCL2 271233Z 18014KT 20/18 A2993 RMK A01 T01990175  RH  086%=      5-min Rain = 0
KCL2 271234Z 18012KT 20/18 A2993 RMK A01 T01990175  RH  086%=      5-min Rain = 0
KCL2 271235Z 18014KT 20/18 A2993 RMK A01 T01980175  RH  086%=      5-min Rain = 0
KCL2 271236Z 18013KT 20/18 A2993 RMK A01 T01990176  RH  086%=      5-min Rain = 0
KCL2 271237Z 18013KT 20/18 A2993 RMK A01 T01990176  RH  086%=      5-min Rain = 0
KCL2 271238Z 18015KT 20/18 A2993 RMK A01 T01990176  RH  086%=      5-min Rain = 0
KCL2 271239Z 19012KT 20/18 A2993 RMK A01 T01990175  RH  086%=      5-min Rain = 0
KCL2 271240Z 18013KT 20/18 A2993 RMK A01 T01990176  RH  086%=      5-min Rain = 0
KCL2 271241Z 18014KT 20/18 A2993 RMK A01 T02000176  RH  086%=      5-min Rain = 0
KCL2 271242Z 18013KT 20/18 A2993 RMK A01 T02000176  RH  086%=      5-min Rain = 0
KCL2 271243Z 18015G21KT 20/18 A2993 RMK A01 T02000176  RH  086%=      5-min Rain = 0
KCL2 271244Z 17014KT 20/18 A2993 RMK A01 T02000176  RH  086%=      5-min Rain = 0
KCL2 271245Z 18012KT 20/18 A2993 RMK A01 T02000176  RH  086%=      5-min Rain = 0
KCL2 271246Z 18013G18KT 20/18 A2993 RMK A01 T02000176  RH  086%=      5-min Rain = 0
KCL2 271247Z 18011KT 20/18 A2993 RMK A01 T02010176  RH  086%=      5-min Rain = 0
KCL2 271248Z 18012G17KT 20/18 A2993 RMK A01 T02010176  RH  086%=      5-min Rain = 0
KCL2 271249Z 18010KT 20/18 A2993 RMK A01 T02010176  RH  085%=      5-min Rain = 0
KCL2 271250Z 18011KT 20/18 A2993 RMK A01 T02020177  RH  085%=      5-min Rain = 0
KCL2 271251Z 17011G17KT 20/18 A2993 RMK A01 T02020177  RH  085%=      5-min Rain = 0
KCL2 271252Z 17014KT 20/18 A2993 RMK A01 T02020177  RH  085%=      5-min Rain = 0
KCL2 271253Z 18014KT 20/18 A2993 RMK A01 T02020176  RH  085%=      5-min Rain = 0
KCL2 271254Z 17012KT 20/18 A2993 RMK A01 T02020176  RH  085%=      5-min Rain = 0
KCL2 271255Z 18010KT 20/18 A2993 RMK A01 T02030176  RH  085%=      5-min Rain = 0
KCL2 271256Z 17010KT 20/18 A2993 RMK A01 T02030177  RH  085%=      5-min Rain = 0
KCL2 271257Z 18008KT 20/18 A2993 RMK A01 T02040177  RH  085%=      5-min Rain = 0
KCL2 271258Z 17010KT 20/18 A2993 RMK A01 T02040178  RH  085%=      5-min Rain = 0
KCL2 271259Z 17012G18KT 20/18 A2993 RMK A01 T02040176  RH  084%=      5-min Rain = 0
KCL2 271300Z 17011KT 21/18 A2993 RMK A01 T02050177  RH  084%=      5-min Rain = 0
KCL2 271301Z 17011KT 21/18 A2993 RMK A01 T02050177  RH  084%=      5-min Rain = 0
KCL2 271302Z 17010KT 21/18 A2993 RMK A01 T02050177  RH  084%=      5-min Rain = 0
KCL2 271303Z 17012KT 21/18 A2993 RMK A01 T02050177  RH  084%=      5-min Rain = 0
KCL2 271304Z 17012G17KT 21/18 A2993 RMK A01 T02050176  RH  084%=      5-min Rain = 0
KCL2 271305Z 17014G19KT 21/18 A2993 RMK A01 T02050176  RH  083%=      5-min Rain = 0
KCL2 271306Z 17014KT 21/18 A2993 RMK A01 T02050176  RH  083%=      5-min Rain = 0
KCL2 271307Z 17011KT 21/18 A2993 RMK A01 T02050176  RH  083%=      5-min Rain = 0
KCL2 271308Z 17013KT 21/18 A2993 RMK A01 T02060177  RH  083%=      5-min Rain = 0
KCL2 271309Z 17011KT 21/18 A2993 RMK A01 T02060177  RH  083%=      5-min Rain = 0
KCL2 271310Z 18010G15KT 21/18 A2993 RMK A01 T02070177  RH  083%=      5-min Rain = 0
KCL2 271311Z 16011KT 21/18 A2993 RMK A01 T02070177  RH  083%=      5-min Rain = 0
KCL2 271312Z 18015G20KT 21/18 A2993 RMK A01 T02070176  RH  082%=      5-min Rain = 0
KCL2 271313Z 17014G19KT 21/18 A2993 RMK A01 T02070177  RH  083%=      5-min Rain = 0
KCL2 271314Z 17014KT 21/18 A2993 RMK A01 T02070177  RH  083%=      5-min Rain = 0
KCL2 271315Z 17011KT 21/18 A2993 RMK A01 T02080177  RH  083%=      5-min Rain = 0
KCL2 271316Z 17012KT 21/18 A2992 RMK A01 T02080177  RH  082%=      5-min Rain = 0
KCL2 271317Z 17015KT 21/18 A2992 RMK A01 T02080177  RH  082%=      5-min Rain = 0
KCL2 271318Z 17013KT 21/18 A2992 RMK A01 T02080177  RH  082%=      5-min Rain = 0
KCL2 271319Z 18014KT 21/18 A2992 RMK A01 T02080177  RH  082%=      5-min Rain = 0
KCL2 271320Z 17013KT 21/18 A2992 RMK A01 T02090177  RH  082%=      5-min Rain = 0
KCL2 271321Z 18012G18KT 21/18 A2992 RMK A01 T02090178  RH  082%=      5-min Rain = 0
KCL2 271322Z 18015G20KT 21/18 A2992 RMK A01 T02100178  RH  082%=      5-min Rain = 0
KCL2 271323Z 18017KT 21/18 A2992 RMK A01 T02100177  RH  081%=      5-min Rain = 0
KCL2 271324Z 17014G19KT 21/18 A2992 RMK A01 T02100177  RH  081%=      5-min Rain = 0
KCL2 271325Z 18015G20KT 21/18 A2992 RMK A01 T02100177  RH  081%=      5-min Rain = 0
KCL2 271326Z 17015KT 21/18 A2991 RMK A01 T02110177  RH  081%=      5-min Rain = 0
KCL2 271327Z 17016G21KT 21/18 A2991 RMK A01 T02110177  RH  081%=      5-min Rain = 0
KCL2 271328Z 17015KT 21/18 A2991 RMK A01 T02110177  RH  081%=      5-min Rain = 0
KCL2 271329Z 17015KT 21/18 A2991 RMK A01 T02110177  RH  081%=      5-min Rain = 0
KCL2 271330Z 17016G22KT 21/18 A2991 RMK A01 T02120178  RH  081%=      5-min Rain = 0
KCL2 271331Z 17014KT 21/18 A2991 RMK A01 T02110177  RH  081%=      5-min Rain = 0
KCL2 271332Z 18015KT 21/18 A2991 RMK A01 T02110176  RH  080%=      5-min Rain = 0
KCL2 271333Z 17011KT 21/18 A2991 RMK A01 T02120177  RH  081%=      5-min Rain = 0
KCL2 271334Z 18017G23KT 21/18 A2991 RMK A01 T02120177  RH  080%=      5-min Rain = 0
KCL2 271335Z 18016G24KT 21/18 A2991 RMK A01 T02120177  RH  080%=      5-min Rain = 0
KCL2 271336Z 18016KT 21/18 A2991 RMK A01 T02120177  RH  080%=      5-min Rain = 0
KCL2 271337Z 17012KT 21/18 A2991 RMK A01 T02130178  RH  080%=      5-min Rain = 0
KCL2 271338Z 18017G24KT 21/18 A2991 RMK A01 T02140177  RH  080%=      5-min Rain = 0
KCL2 271339Z 18014KT 21/18 A2991 RMK A01 T02140178  RH  080%=      5-min Rain = 0
KCL2 271340Z 18015G23KT 21/18 A2991 RMK A01 T02140178  RH  080%=      5-min Rain = 0
KCL2 271341Z 17017G22KT 21/18 A2991 RMK A01 T02140176  RH  079%=      5-min Rain = 0
KCL2 271342Z 17016G21KT 21/18 A2991 RMK A01 T02140177  RH  079%=      5-min Rain = 0
KCL2 271343Z 18015G20KT 21/18 A2991 RMK A01 T02140177  RH  079%=      5-min Rain = 0
KCL2 271344Z 18014G19KT 21/18 A2991 RMK A01 T02140177  RH  079%=      5-min Rain = 0
KCL2 271345Z 17017G23KT 22/18 A299 RMK A01 T02150177  RH  079%=      5-min Rain = 0
KCL2 271346Z 18016KT 22/18 A2991 RMK A01 T02150176  RH  079%=      5-min Rain = 0
KCL2 271347Z 17016G21KT 22/18 A2991 RMK A01 T02150178  RH  079%=      5-min Rain = 0
KCL2 271348Z 18017KT 22/18 A2991 RMK A01 T02160177  RH  078%=      5-min Rain = 0
KCL2 271349Z 17019G24KT 22/18 A299 RMK A01 T02160176  RH  078%=      5-min Rain = 0
KCL2 271350Z 18016KT 22/18 A2991 RMK A01 T02160177  RH  079%=      5-min Rain = 0
KCL2 271351Z 18014G20KT 22/18 A2991 RMK A01 T02160178  RH  079%=      5-min Rain = 0
KCL2 271352Z 17014G19KT 22/18 A2991 RMK A01 T02170177  RH  078%=      5-min Rain = 0
KCL2 271353Z 18019KT 22/18 A2991 RMK A01 T02170177  RH  078%=      5-min Rain = 0
KCL2 271354Z 18020KT 22/18 A2991 RMK A01 T02170176  RH  078%=      5-min Rain = 0
KCL2 271355Z 17018KT 22/18 A2991 RMK A01 T02170176  RH  077%=      5-min Rain = 0
KCL2 271356Z 18017KT 22/18 A2991 RMK A01 T02170176  RH  077%=      5-min Rain = 0
KCL2 271357Z 17019KT 22/18 A2991 RMK A01 T02170176  RH  077%=      5-min Rain = 0
KCL2 271358Z 18015KT 22/18 A2991 RMK A01 T02180177  RH  077%=      5-min Rain = 0
KCL2 271359Z 17014G20KT 22/18 A2991 RMK A01 T02190177  RH  077%=      5-min Rain = 0
KCL2 271400Z 17016KT 22/18 A2991 RMK A01 T02190176  RH  077%=      5-min Rain = 0
KCL2 271401Z 18016KT 22/18 A2991 RMK A01 T02190177  RH  077%=      5-min Rain = 0
KCL2 271402Z 18014KT 22/18 A2991 RMK A01 T02200177  RH  077%=      5-min Rain = 0
KCL2 271403Z 18014G19KT 22/18 A2991 RMK A01 T02200178  RH  077%=      5-min Rain = 0
KCL2 271404Z 17015KT 22/18 A2991 RMK A01 T02210178  RH  076%=      5-min Rain = 0
KCL2 271405Z 18016KT 22/18 A2991 RMK A01 T02220178  RH  076%=      5-min Rain = 0
KCL2 271406Z 18017G22KT 22/18 A299 RMK A01 T02220177  RH  076%=      5-min Rain = 0
KCL2 271407Z 18016KT 22/18 A299 RMK A01 T02220177  RH  076%=      5-min Rain = 0
KCL2 271408Z 18019KT 22/18 A299 RMK A01 T02220177  RH  076%=      5-min Rain = 0
KCL2 271409Z 17011KT 22/18 A299 RMK A01 T02220177  RH  076%=      5-min Rain = 0
KCL2 271410Z 17015KT 22/18 A299 RMK A01 T02230178  RH  076%=      5-min Rain = 0
KCL2 271411Z 18019KT 22/18 A299 RMK A01 T02230177  RH  075%=      5-min Rain = 0
KCL2 271412Z 18016G21KT 22/18 A299 RMK A01 T02230177  RH  075%=      5-min Rain = 0
KCL2 271413Z 17014G19KT 22/18 A299 RMK A01 T02230178  RH  075%=      5-min Rain = 0
KCL2 271414Z 17014G19KT 22/18 A299 RMK A01 T02230176  RH  075%=      5-min Rain = 0
KCL2 271415Z 18017G23KT 22/18 A299 RMK A01 T02240177  RH  075%=      5-min Rain = 0
KCL2 271416Z 18018G23KT 22/18 A299 RMK A01 T02240175  RH  074%=      5-min Rain = 0
KCL2 271417Z 18021KT 22/18 A299 RMK A01 T02240175  RH  074%=      5-min Rain = 0
KCL2 271418Z 18017G24KT 22/17 A299 RMK A01 T02240174  RH  073%=      5-min Rain = 0
KCL2 271419Z 19017KT 22/17 A299 RMK A01 T02240174  RH  074%=      5-min Rain = 0
KCL2 271420Z 18013G20KT 22/18 A2991 RMK A01 T02240176  RH  074%=      5-min Rain = 0
KCL2 271421Z 18018G25KT 23/18 A299 RMK A01 T02260176  RH  074%=      5-min Rain = 0
KCL2 271422Z 18017KT 23/18 A299 RMK A01 T02260175  RH  073%=      5-min Rain = 0
KCL2 271423Z 18017KT 23/18 A299 RMK A01 T02260175  RH  073%=      5-min Rain = 0
KCL2 271424Z 18020KT 23/17 A299 RMK A01 T02270174  RH  072%=      5-min Rain = 0
KCL2 271425Z 17020KT 23/17 A299 RMK A01 T02270173  RH  072%=      5-min Rain = 0
KCL2 271426Z 18021G27KT 23/17 A299 RMK A01 T02270173  RH  072%=      5-min Rain = 0
KCL2 271427Z 18024KT 23/17 A299 RMK A01 T02270172  RH  071%=      5-min Rain = 0
KCL2 271428Z 19019KT 23/17 A299 RMK A01 T02260171  RH  071%=      5-min Rain = 0
KCL2 271429Z 19018KT 23/17 A2991 RMK A01 T02260173  RH  072%=      5-min Rain = 0
KCL2 271430Z 17015KT 23/17 A2991 RMK A01 T02280174  RH  072%=      5-min Rain = 0
KCL2 271431Z 18016G21KT 23/17 A2991 RMK A01 T02290174  RH  071%=      5-min Rain = 0
KCL2 271432Z 19012G18KT 23/18 A2991 RMK A01 T02290175  RH  072%=      5-min Rain = 0
KCL2 271433Z 19016G22KT 23/18 A2991 RMK A01 T02300176  RH  072%=      5-min Rain = 0
KCL2 271434Z 19016G23KT 23/17 A2991 RMK A01 T02310174  RH  070%=      5-min Rain = 0
KCL2 271435Z 19016G21KT 23/17 A2991 RMK A01 T02310174  RH  070%=      5-min Rain = 0
KCL2 271436Z 18017G22KT 23/17 A2991 RMK A01 T02310173  RH  070%=      5-min Rain = 0
KCL2 271437Z 19017G22KT 23/17 A2991 RMK A01 T02310173  RH  070%=      5-min Rain = 0
KCL2 271438Z 18018G26KT 23/17 A2991 RMK A01 T02300173  RH  070%=      5-min Rain = 0
KCL2 271439Z 18020KT 23/17 A2991 RMK A01 T02310171  RH  069%=      5-min Rain = 0
KCL2 271440Z 19014KT 23/17 A2991 RMK A01 T02310173  RH  070%=      5-min Rain = 0
KCL2 271441Z 20012KT 23/18 A2991 RMK A01 T02310175  RH  071%=      5-min Rain = 0
KCL2 271442Z 19017KT 23/17 A2991 RMK A01 T02340174  RH  069%=      5-min Rain = 0
KCL2 271443Z 20014KT 23/17 A2991 RMK A01 T02340174  RH  069%=      5-min Rain = 0
KCL2 271444Z 17013G19KT 24/18 A2992 RMK A01 T02350175  RH  069%=      5-min Rain = 0
KCL2 271445Z 18014G19KT 24/17 A2992 RMK A01 T02360174  RH  068%=      5-min Rain = 0
KCL2 271446Z 18015G21KT 24/18 A2992 RMK A01 T02360175  RH  069%=      5-min Rain = 0
KCL2 271447Z 18017KT 24/17 A2991 RMK A01 T02360172  RH  067%=      5-min Rain = 0
KCL2 271448Z 19015G20KT 24/17 A2992 RMK A01 T02350172  RH  068%=      5-min Rain = 0
KCL2 271449Z 18015KT 24/17 A2992 RMK A01 T02350172  RH  068%=      5-min Rain = 0
KCL2 271450Z 18016G22KT 24/17 A2992 RMK A01 T02350172  RH  068%=      5-min Rain = 0
KCL2 271451Z 18016KT 24/17 A2992 RMK A01 T02350171  RH  067%=      5-min Rain = 0
KCL2 271452Z 19016KT 24/17 A2992 RMK A01 T02360172  RH  067%=      5-min Rain = 0
KCL2 271453Z 19014KT 24/17 A2992 RMK A01 T02360172  RH  067%=      5-min Rain = 0
KCL2 271454Z 19013KT 24/17 A2992 RMK A01 T02360173  RH  068%=      5-min Rain = 0
KCL2 271455Z 19013KT 24/17 A2992 RMK A01 T02370173  RH  067%=      5-min Rain = 0
KCL2 271456Z 18014KT 24/17 A2992 RMK A01 T02380173  RH  067%=      5-min Rain = 0
KCL2 271457Z 19015KT 24/17 A2992 RMK A01 T02390172  RH  066%=      5-min Rain = 0
KCL2 271458Z 18017KT 24/17 A2992 RMK A01 T02380171  RH  066%=      5-min Rain = 0
KCL2 271459Z 18016KT 24/17 A2992 RMK A01 T02380171  RH  066%=      5-min Rain = 0
KCL2 271500Z 19016G21KT 24/17 A2992 RMK A01 T02380171  RH  066%=      5-min Rain = 0
KCL2 271501Z 18017KT 24/17 A2992 RMK A01 T02380172  RH  066%=      5-min Rain = 0
KCL2 271502Z 18014KT 24/17 A2992 RMK A01 T02380171  RH  066%=      5-min Rain = 0
KCL2 271503Z 19018G24KT 24/17 A2992 RMK A01 T02380171  RH  066%=      5-min Rain = 0
KCL2 271504Z 19014G20KT 24/17 A2992 RMK A01 T02380172  RH  066%=      5-min Rain = 0
KCL2 271505Z 19015KT 24/17 A2992 RMK A01 T02390173  RH  066%=      5-min Rain = 0
KCL2 271506Z 20014KT 24/17 A2992 RMK A01 T02390170  RH  065%=      5-min Rain = 0
KCL2 271507Z 18016G21KT 24/17 A2992 RMK A01 T02390172  RH  066%=      5-min Rain = 0
KCL2 271508Z 16014KT 24/17 A2992 RMK A01 T02400171  RH  065%=      5-min Rain = 0
KCL2 271509Z 19011KT 24/18 A2992 RMK A01 T02400176  RH  067%=      5-min Rain = 0
KCL2 271510Z 18014KT 24/18 A2992 RMK A01 T02420175  RH  066%=      5-min Rain = 0
KCL2 271511Z 19013KT 24/18 A2992 RMK A01 T02430175  RH  066%=      5-min Rain = 0
KCL2 271512Z 18013G18KT 24/18 A2992 RMK A01 T02430176  RH  066%=      5-min Rain = 0
KCL2 271513Z 19016KT 24/17 A2992 RMK A01 T02440173  RH  065%=      5-min Rain = 0
KCL2 271514Z 20014KT 24/17 A2992 RMK A01 T02440172  RH  064%=      5-min Rain = 0
KCL2 271515Z 19014KT 24/17 A2992 RMK A01 T02440173  RH  065%=      5-min Rain = 0
KCL2 271516Z 19012G17KT 24/17 A2992 RMK A01 T02440174  RH  065%=      5-min Rain = 0
KCL2 271517Z 19014KT 25/17 A2992 RMK A01 T02450174  RH  065%=      5-min Rain = 0
KCL2 271518Z 20012KT 25/17 A2992 RMK A01 T02460173  RH  064%=      5-min Rain = 0
KCL2 271519Z 17010KT 25/18 A2992 RMK A01 T02460175  RH  065%=      5-min Rain = 0
KCL2 271520Z 18011G17KT 25/18 A2992 RMK A01 T02470179  RH  066%=      5-min Rain = 0
KCL2 271521Z 18012KT 25/18 A2992 RMK A01 T02490178  RH  064%=      5-min Rain = 0
KCL2 271522Z 18012G17KT 25/18 A2992 RMK A01 T02500176  RH  064%=      5-min Rain = 0
KCL2 271523Z 17013G18KT 25/18 A2992 RMK A01 T02480176  RH  064%=      5-min Rain = 0
KCL2 271524Z 17013KT 25/18 A2992 RMK A01 T02470176  RH  064%=      5-min Rain = 0
KCL2 271525Z 20013KT 25/18 A2992 RMK A01 T02470177  RH  065%=      5-min Rain = 0
KCL2 271526Z 20011KT 25/18 A2992 RMK A01 T02470177  RH  065%=      5-min Rain = 0
KCL2 271527Z 18011KT 25/18 A2992 RMK A01 T02490176  RH  064%=      5-min Rain = 0
KCL2 271528Z 18013KT 25/18 A2992 RMK A01 T02480175  RH  064%=      5-min Rain = 0
KCL2 271529Z 18010KT 25/18 A2992 RMK A01 T02490175  RH  064%=      5-min Rain = 0
KCL2 271530Z 18012KT 25/18 A2991 RMK A01 T02490176  RH  064%=      5-min Rain = 0
KCL2 271531Z 18015KT 25/18 A2992 RMK A01 T02480176  RH  064%=      5-min Rain = 0
KCL2 271532Z 20014KT 25/18 A2992 RMK A01 T02490177  RH  064%=      5-min Rain = 0
KCL2 271533Z 20016KT 25/18 A2992 RMK A01 T02500176  RH  064%=      5-min Rain = 0
KCL2 271534Z 18012KT 25/18 A2992 RMK A01 T02490175  RH  064%=      5-min Rain = 0
KCL2 271535Z 18011KT 25/18 A2992 RMK A01 T02490176  RH  064%=      5-min Rain = 0
KCL2 271536Z 17011G16KT 25/18 A2992 RMK A01 T02490178  RH  065%=      5-min Rain = 0
KCL2 271537Z 18014KT 25/18 A2992 RMK A01 T02510176  RH  063%=      5-min Rain = 0
KCL2 271538Z 17015G20KT 25/18 A2992 RMK A01 T02510176  RH  063%=      5-min Rain = 0
KCL2 271539Z 17015KT 25/18 A2992 RMK A01 T02500175  RH  063%=      5-min Rain = 0
KCL2 271540Z 18015G20KT 25/18 A2992 RMK A01 T02500176  RH  063%=      5-min Rain = 0
KCL2 271541Z 18011KT 25/18 A2992 RMK A01 T02500177  RH  064%=      5-min Rain = 0
KCL2 271542Z 17013KT 25/18 A2992 RMK A01 T02490177  RH  064%=      5-min Rain = 0
KCL2 271543Z 18011KT 25/18 A2992 RMK A01 T02490176  RH  064%=      5-min Rain = 0
KCL2 271544Z 18010KT 25/18 A2992 RMK A01 T02480180  RH  066%=      5-min Rain = 0
KCL2 271545Z 19009KT 25/18 A2992 RMK A01 T02510183  RH  066%=      5-min Rain = 0
KCL2 271546Z 19011KT 25/18 A2992 RMK A01 T02540182  RH  064%=      5-min Rain = 0
KCL2 271547Z 18012KT 26/18 A2992 RMK A01 T02550181  RH  064%=      5-min Rain = 0
KCL2 271548Z 17012KT 26/18 A2991 RMK A01 T02550180  RH  063%=      5-min Rain = 0
KCL2 271549Z 18015KT 26/18 A2991 RMK A01 T02550181  RH  064%=      5-min Rain = 0
KCL2 271550Z 19019KT 26/18 A2992 RMK A01 T02550178  RH  063%=      5-min Rain = 0
KCL2 271551Z 19015KT 25/18 A2991 RMK A01 T02520179  RH  064%=      5-min Rain = 0
KCL2 271552Z 18016G22KT 25/18 A2991 RMK A01 T02520178  RH  064%=      5-min Rain = 0
KCL2 271553Z 18014G20KT 25/18 A2991 RMK A01 T02520177  RH  063%=      5-min Rain = 0
KCL2 271554Z 17019KT 25/18 A2991 RMK A01 T02520177  RH  063%=      5-min Rain = 0
KCL2 271555Z 18015KT 25/18 A2991 RMK A01 T02520177  RH  063%=      5-min Rain = 0
KCL2 271556Z 17016G21KT 25/18 A2991 RMK A01 T02520177  RH  063%=      5-min Rain = 0
KCL2 271557Z 18018KT 25/18 A2991 RMK A01 T02520177  RH  063%=      5-min Rain = 0
KCL2 271558Z 19017KT 25/18 A2991 RMK A01 T02520177  RH  063%=      5-min Rain = 0
KCL2 271559Z 18018G23KT 25/18 A2991 RMK A01 T02520177  RH  063%=      5-min Rain = 0
KCL2 271600Z 17013KT 25/18 A2991 RMK A01 T02510179  RH  064%=      5-min Rain = 0
KCL2 271601Z 18014KT 25/18 A2991 RMK A01 T02540180  RH  064%=      5-min Rain = 0
KCL2 271602Z 18013KT 26/18 A2991 RMK A01 T02550182  RH  064%=      5-min Rain = 0
KCL2 271603Z 19014KT 26/18 A2991 RMK A01 T02570181  RH  063%=      5-min Rain = 0
KCL2 271604Z 19017KT 26/18 A2991 RMK A01 T02570180  RH  062%=      5-min Rain = 0
KCL2 271605Z 18014KT 26/18 A2991 RMK A01 T02560182  RH  064%=      5-min Rain = 0
KCL2 271606Z 17012KT 26/18 A2991 RMK A01 T02560182  RH  063%=      5-min Rain = 0
KCL2 271607Z 18017KT 26/18 A2991 RMK A01 T02580182  RH  063%=      5-min Rain = 0
KCL2 271608Z 19016KT 26/18 A2991 RMK A01 T02570180  RH  062%=      5-min Rain = 0
KCL2 271609Z 17015KT 26/18 A2991 RMK A01 T02560182  RH  064%=      5-min Rain = 0
KCL2 271610Z 17016KT 26/18 A2991 RMK A01 T02570181  RH  063%=      5-min Rain = 0
KCL2 271611Z 16015KT 26/18 A2991 RMK A01 T02580180  RH  062%=      5-min Rain = 0
KCL2 271612Z 18012KT 26/18 A2991 RMK A01 T02580184  RH  063%=      5-min Rain = 0
KCL2 271613Z 19012KT 26/18 A2991 RMK A01 T02600183  RH  062%=      5-min Rain = 0
KCL2 271614Z 18015G20KT 26/18 A2991 RMK A01 T02600183  RH  062%=      5-min Rain = 0
KCL2 271615Z 18016KT 26/18 A2991 RMK A01 T02590181  RH  062%=      5-min Rain = 0
KCL2 271616Z 18016G22KT 26/18 A2991 RMK A01 T02590182  RH  062%=      5-min Rain = 0
KCL2 271617Z 17015KT 26/18 A2991 RMK A01 T02580180  RH  062%=      5-min Rain = 0
KCL2 271618Z 19017KT 26/18 A2991 RMK A01 T02570180  RH  062%=      5-min Rain = 0
KCL2 271619Z 18016KT 26/18 A2991 RMK A01 T02580181  RH  063%=      5-min Rain = 0
KCL2 271620Z 19015KT 26/18 A2991 RMK A01 T02580181  RH  062%=      5-min Rain = 0
KCL2 271621Z 19014G20KT 26/18 A299 RMK A01 T02580182  RH  063%=      5-min Rain = 0
KCL2 271622Z 20016KT 26/18 A299 RMK A01 T02580183  RH  063%=      5-min Rain = 0
KCL2 271623Z 19018KT 26/18 A299 RMK A01 T02590182  RH  062%=      5-min Rain = 0
KCL2 271624Z 19017G24KT 26/18 A299 RMK A01 T02590183  RH  063%=      5-min Rain = 0
KCL2 271625Z 19017KT 26/18 A299 RMK A01 T02590180  RH  062%=      5-min Rain = 0
KCL2 271626Z 19016KT 26/18 A299 RMK A01 T02580181  RH  063%=      5-min Rain = 0
KCL2 271627Z 19017KT 26/18 A299 RMK A01 T02580182  RH  063%=      5-min Rain = 0
KCL2 271628Z 17013KT 26/18 A2991 RMK A01 T02580182  RH  063%=      5-min Rain = 0
KCL2 271629Z 18011G16KT 26/18 A299 RMK A01 T02580183  RH  063%=      5-min Rain = 0
KCL2 271630Z 18013KT 26/19 A299 RMK A01 T02600187  RH  064%=      5-min Rain = 0
KCL2 271631Z 18017G23KT 26/18 A299 RMK A01 T02620184  RH  062%=      5-min Rain = 0
KCL2 271632Z 17017G23KT 26/18 A2991 RMK A01 T02620183  RH  062%=      5-min Rain = 0
KCL2 271633Z 18017G22KT 26/18 A299 RMK A01 T02620183  RH  062%=      5-min Rain = 0
KCL2 271634Z 18020KT 26/18 A299 RMK A01 T02600181  RH  062%=      5-min Rain = 0
KCL2 271635Z 18019G24KT 26/18 A299 RMK A01 T02590181  RH  062%=      5-min Rain = 0
KCL2 271636Z 18018KT 26/18 A299 RMK A01 T02570181  RH  063%=      5-min Rain = 0
KCL2 271637Z 18019G25KT 26/18 A299 RMK A01 T02570182  RH  063%=      5-min Rain = 0
KCL2 271638Z 17019KT 26/18 A299 RMK A01 T02580183  RH  063%=      5-min Rain = 0
KCL2 271639Z 18016KT 26/18 A299 RMK A01 T02590183  RH  063%=      5-min Rain = 0
KCL2 271640Z 17017KT 26/18 A299 RMK A01 T02590183  RH  063%=      5-min Rain = 0
KCL2 271641Z 18016G21KT 26/18 A299 RMK A01 T02600183  RH  063%=      5-min Rain = 0
KCL2 271642Z 17015KT 26/19 A299 RMK A01 T02600186  RH  063%=      5-min Rain = 0
KCL2 271643Z 18014KT 26/18 A299 RMK A01 T02610184  RH  063%=      5-min Rain = 0
KCL2 271644Z 18018KT 26/19 A299 RMK A01 T02610185  RH  063%=      5-min Rain = 0
KCL2 271645Z 18016KT 26/19 A299 RMK A01 T02610185  RH  063%=      5-min Rain = 0
KCL2 271646Z 18015KT 26/19 A299 RMK A01 T02610187  RH  064%=      5-min Rain = 0
KCL2 271647Z 19014KT 26/19 A299 RMK A01 T02620186  RH  063%=      5-min Rain = 0
KCL2 271648Z 19014KT 26/19 A299 RMK A01 T02620189  RH  064%=      5-min Rain = 0
KCL2 271649Z 18019KT 26/19 A299 RMK A01 T02630187  RH  063%=      5-min Rain = 0
KCL2 271650Z 18020KT 26/19 A299 RMK A01 T02630185  RH  062%=      5-min Rain = 0
KCL2 271651Z 18018KT 26/19 A299 RMK A01 T02630185  RH  062%=      5-min Rain = 0
KCL2 271652Z 19017KT 26/18 A299 RMK A01 T02620184  RH  062%=      5-min Rain = 0
KCL2 271653Z 19015KT 26/19 A299 RMK A01 T02630187  RH  063%=      5-min Rain = 0
KCL2 271654Z 19013KT 27/19 A299 RMK A01 T02650190  RH  063%=      5-min Rain = 0
KCL2 271655Z 18016G22KT 27/19 A299 RMK A01 T02670189  RH  062%=      5-min Rain = 0
KCL2 271656Z 19019KT 27/19 A299 RMK A01 T02670186  RH  061%=      5-min Rain = 0
KCL2 271657Z 18014KT 27/19 A299 RMK A01 T02660188  RH  063%=      5-min Rain = 0
KCL2 271658Z 18014KT 27/19 A299 RMK A01 T02670191  RH  063%=      5-min Rain = 0
KCL2 271659Z 18012G20KT 27/19 A299 RMK A01 T02690189  RH  061%=      5-min Rain = 0
KCL2 271700Z 18018G23KT 27/19 A299 RMK A01 T02690190  RH  062%=      5-min Rain = 0
KCL2 271701Z 19015G22KT 27/19 A299 RMK A01 T02680189  RH  062%=      5-min Rain = 0
KCL2 271702Z 18018KT 27/19 A299 RMK A01 T02680191  RH  062%=      5-min Rain = 0
KCL2 271703Z 17016KT 27/19 A299 RMK A01 T02690189  RH  062%=      5-min Rain = 0
KCL2 271704Z 19015KT 27/19 A2989 RMK A01 T02680188  RH  062%=      5-min Rain = 0
KCL2 271705Z 19016G21KT 27/19 A2989 RMK A01 T02670189  RH  062%=      5-min Rain = 0
KCL2 271706Z 19022G27KT 27/19 A2989 RMK A01 T02670188  RH  062%=      5-min Rain = 0
KCL2 271707Z 18016G22KT 27/19 A2989 RMK A01 T02660187  RH  062%=      5-min Rain = 0
KCL2 271708Z 18018KT 27/19 A2989 RMK A01 T02650188  RH  062%=      5-min Rain = 0
KCL2 271709Z 18016G21KT 27/19 A2989 RMK A01 T02650187  RH  062%=      5-min Rain = 0
KCL2 271710Z 19013KT 27/19 A2989 RMK A01 T02660189  RH  063%=      5-min Rain = 0
KCL2 271711Z 17014G20KT 27/19 A2989 RMK A01 T02680191  RH  063%=      5-min Rain = 0
KCL2 271712Z 17018G23KT 27/19 A2989 RMK A01 T02700189  RH  061%=      5-min Rain = 0
KCL2 271713Z 18019G24KT 27/19 A2989 RMK A01 T02690187  RH  061%=      5-min Rain = 0
KCL2 271714Z 17020KT 27/19 A2989 RMK A01 T02660187  RH  062%=      5-min Rain = 0
KCL2 271715Z 17019G24KT 27/19 A2989 RMK A01 T02660188  RH  062%=      5-min Rain = 0
KCL2 271716Z 16017G24KT 27/19 A2989 RMK A01 T02670189  RH  062%=      5-min Rain = 0
KCL2 271717Z 17020KT 27/19 A2989 RMK A01 T02670186  RH  061%=      5-min Rain = 0
KCL2 271718Z 17016KT 27/19 A2989 RMK A01 T02660189  RH  063%=      5-min Rain = 0
KCL2 271719Z 17017KT 27/19 A2989 RMK A01 T02670189  RH  062%=      5-min Rain = 0
KCL2 271720Z 17017KT 27/19 A2989 RMK A01 T02680190  RH  062%=      5-min Rain = 0
KCL2 271721Z 18018G23KT 27/19 A2989 RMK A01 T02690190  RH  062%=      5-min Rain = 0
KCL2 271722Z 18020KT 27/19 A2989 RMK A01 T02690189  RH  062%=      5-min Rain = 0
KCL2 271723Z 18020G26KT 27/19 A2989 RMK A01 T02680188  RH  061%=      5-min Rain = 0
KCL2 271724Z 18018KT 27/19 A2989 RMK A01 T02670188  RH  062%=      5-min Rain = 0
KCL2 271725Z 19017KT 27/19 A2989 RMK A01 T02670189  RH  062%=      5-min Rain = 0
KCL2 271726Z 19019KT 27/19 A2989 RMK A01 T02680191  RH  063%=      5-min Rain = 0
KCL2 271727Z 20015KT 27/19 A2989 RMK A01 T02690192  RH  063%=      5-min Rain = 0
KCL2 271728Z 19013KT 27/20 A2989 RMK A01 T02710195  RH  063%=      5-min Rain = 0
KCL2 271729Z 19013KT 27/20 A2989 RMK A01 T02740197  RH  063%=      5-min Rain = 0
KCL2 271730Z 20013KT 28/20 A2989 RMK A01 T02750196  RH  062%=      5-min Rain = 0
KCL2 271731Z 19012KT 28/20 A2989 RMK A01 T02760199  RH  063%=      5-min Rain = 0
KCL2 271732Z 19019G25KT 28/20 A2989 RMK A01 T02780195  RH  061%=      5-min Rain = 0
KCL2 271733Z 18019G24KT 28/19 A2989 RMK A01 T02750191  RH  060%=      5-min Rain = 0
KCL2 271734Z 19017G23KT 27/19 A2989 RMK A01 T02730192  RH  061%=      5-min Rain = 0
KCL2 271735Z 18015G20KT 27/19 A2989 RMK A01 T02730192  RH  061%=      5-min Rain = 0
KCL2 271736Z 18015KT 27/19 A2989 RMK A01 T02730194  RH  062%=      5-min Rain = 0
KCL2 271737Z 19021KT 27/19 A2989 RMK A01 T02740191  RH  060%=      5-min Rain = 0
KCL2 271738Z 18018KT 27/19 A2989 RMK A01 T02720189  RH  060%=      5-min Rain = 0
KCL2 271739Z 19018KT 27/19 A2989 RMK A01 T02700190  RH  061%=      5-min Rain = 0
KCL2 271740Z 19019G24KT 27/19 A2989 RMK A01 T02710189  RH  061%=      5-min Rain = 0
KCL2 271741Z 18019KT 27/19 A2989 RMK A01 T02710190  RH  061%=      5-min Rain = 0
KCL2 271742Z 18016KT 27/19 A2989 RMK A01 T02720192  RH  062%=      5-min Rain = 0
KCL2 271743Z 18018G23KT 27/19 A2989 RMK A01 T02720191  RH  061%=      5-min Rain = 0
KCL2 271744Z 17019KT 27/19 A2989 RMK A01 T02720191  RH  061%=      5-min Rain = 0
KCL2 271745Z 17016G21KT 27/19 A2989 RMK A01 T02720193  RH  062%=      5-min Rain = 0
KCL2 271746Z 17015KT 27/19 A2989 RMK A01 T02740193  RH  061%=      5-min Rain = 0
KCL2 271747Z 18012KT 28/20 A2989 RMK A01 T02750196  RH  062%=      5-min Rain = 0
KCL2 271748Z 18016G21KT 28/20 A2989 RMK A01 T02770195  RH  061%=      5-min Rain = 0
KCL2 271749Z 18013KT 28/20 A2989 RMK A01 T02770196  RH  061%=      5-min Rain = 0
KCL2 271750Z 18015KT 28/20 A2988 RMK A01 T02770195  RH  061%=      5-min Rain = 0
KCL2 271751Z 19015KT 28/19 A2989 RMK A01 T02770194  RH  061%=      5-min Rain = 0
KCL2 271752Z 18017G22KT 28/19 A2989 RMK A01 T02760194  RH  061%=      5-min Rain = 0
KCL2 271753Z 18016G21KT 28/19 A2989 RMK A01 T02750192  RH  061%=      5-min Rain = 0
KCL2 271754Z 18015G23KT 28/20 A2989 RMK A01 T02750195  RH  061%=      5-min Rain = 0
KCL2 271755Z 18020KT 28/19 A2989 RMK A01 T02760193  RH  060%=      5-min Rain = 0
KCL2 271756Z 18016KT 28/19 A2988 RMK A01 T02760193  RH  060%=      5-min Rain = 0
KCL2 271757Z 19017G22KT 28/20 A2988 RMK A01 T02760195  RH  061%=      5-min Rain = 0
KCL2 271758Z 20018G23KT 28/19 A2988 RMK A01 T02770194  RH  061%=      5-min Rain = 0
KCL2 271759Z 18017KT 28/20 A2989 RMK A01 T02770195  RH  061%=      5-min Rain = 0
KCL2 271800Z 18014KT 28/19 A2989 RMK A01 T02770194  RH  061%=      5-min Rain = 0
KCL2 271801Z 18014G21KT 28/20 A2989 RMK A01 T02770195  RH  061%=      5-min Rain = 0
KCL2 271802Z 19015KT 28/19 A2989 RMK A01 T02780192  RH  060%=      5-min Rain = 0
KCL2 271803Z 20015KT 28/19 A2989 RMK A01 T02770193  RH  060%=      5-min Rain = 0
KCL2 271804Z 19014KT 28/20 A2989 RMK A01 T02770195  RH  061%=      5-min Rain = 0
KCL2 271805Z 18016KT 28/20 A2989 RMK A01 T02780196  RH  061%=      5-min Rain = 0
KCL2 271806Z 18016KT 28/19 A2989 RMK A01 T02790194  RH  060%=      5-min Rain = 0
KCL2 271807Z 18015KT 28/19 A2988 RMK A01 T02780194  RH  060%=      5-min Rain = 0
KCL2 271808Z 20016G21KT 28/20 A2989 RMK A01 T02780195  RH  060%=      5-min Rain = 0
KCL2 271809Z 20017G22KT 28/20 A2988 RMK A01 T02780195  RH  060%=      5-min Rain = 0
KCL2 271810Z 20015KT 28/19 A2988 RMK A01 T02770193  RH  060%=      5-min Rain = 0
KCL2 271811Z 18015G21KT 28/20 A2988 RMK A01 T02780198  RH  062%=      5-min Rain = 0
KCL2 271812Z 18017G22KT 28/19 A2988 RMK A01 T02790193  RH  060%=      5-min Rain = 0
KCL2 271813Z 18014KT 28/20 A2988 RMK A01 T02790195  RH  060%=      5-min Rain = 0
KCL2 271814Z 18012KT 28/20 A2988 RMK A01 T02790195  RH  060%=      5-min Rain = 0
KCL2 271815Z 19011G16KT 28/20 A2988 RMK A01 T02810201  RH  062%=      5-min Rain = 0
KCL2 271816Z 19015G20KT 28/20 A2988 RMK A01 T02840197  RH  059%=      5-min Rain = 0
KCL2 271817Z 19015KT 28/20 A2988 RMK A01 T02830196  RH  059%=      5-min Rain = 0
KCL2 271818Z 20015KT 28/20 A2988 RMK A01 T02820196  RH  060%=      5-min Rain = 0
KCL2 271819Z 19014KT 28/20 A2988 RMK A01 T02800196  RH  060%=      5-min Rain = 0
KCL2 271820Z 19016G22KT 28/20 A2988 RMK A01 T02800195  RH  060%=      5-min Rain = 0
KCL2 271821Z 18017KT 28/20 A2988 RMK A01 T02790196  RH  061%=      5-min Rain = 0
KCL2 271822Z 19018G24KT 28/20 A2988 RMK A01 T02800195  RH  060%=      5-min Rain = 0
KCL2 271823Z 19018KT 28/19 A2988 RMK A01 T02800193  RH  059%=      5-min Rain = 0
KCL2 271824Z 19017G22KT 28/19 A2988 RMK A01 T02800194  RH  060%=      5-min Rain = 0
KCL2 271825Z 19019KT 28/19 A2988 RMK A01 T02790193  RH  060%=      5-min Rain = 0
KCL2 271826Z 18018KT 28/19 A2987 RMK A01 T02780192  RH  060%=      5-min Rain = 0
KCL2 271827Z 19017KT 28/19 A2988 RMK A01 T02780194  RH  060%=      5-min Rain = 0
KCL2 271828Z 18016G21KT 28/19 A2988 RMK A01 T02780194  RH  060%=      5-min Rain = 0
KCL2 271829Z 19019KT 28/19 A2988 RMK A01 T02790193  RH  060%=      5-min Rain = 0
KCL2 271830Z 19019G25KT 28/20 A2988 RMK A01 T02790195  RH  060%=      5-min Rain = 0
KCL2 271831Z 19018G23KT 28/19 A2988 RMK A01 T02790193  RH  059%=      5-min Rain = 0
KCL2 271832Z 20017KT 28/19 A2988 RMK A01 T02790194  RH  060%=      5-min Rain = 0
KCL2 271833Z 19018KT 28/19 A2987 RMK A01 T02790194  RH  060%=      5-min Rain = 0
KCL2 271834Z 17017KT 28/19 A2988 RMK A01 T02790194  RH  060%=      5-min Rain = 0
KCL2 271835Z 18013KT 28/20 A2988 RMK A01 T02790195  RH  060%=      5-min Rain = 0
KCL2 271836Z 18015KT 28/20 A2987 RMK A01 T02800196  RH  060%=      5-min Rain = 0
KCL2 271837Z 18015G21KT 28/20 A2987 RMK A01 T02810196  RH  060%=      5-min Rain = 0
KCL2 271838Z 19022G27KT 28/19 A2987 RMK A01 T02820194  RH  059%=      5-min Rain = 0
KCL2 271839Z 18020G25KT 28/19 A2987 RMK A01 T02800192  RH  059%=      5-min Rain = 0
KCL2 271840Z 18020KT 28/19 A2987 RMK A01 T02790193  RH  060%=      5-min Rain = 0
KCL2 271841Z 19019KT 28/19 A2987 RMK A01 T02790192  RH  059%=      5-min Rain = 0
KCL2 271842Z 19015KT 28/20 A2987 RMK A01 T02800196  RH  060%=      5-min Rain = 0
KCL2 271843Z 19015KT 28/20 A2987 RMK A01 T02820197  RH  060%=      5-min Rain = 0
KCL2 271844Z 18015KT 28/20 A2987 RMK A01 T02830196  RH  059%=      5-min Rain = 0
KCL2 271845Z 19015KT 28/20 A2987 RMK A01 T02830196  RH  059%=      5-min Rain = 0
KCL2 271846Z 19014KT 28/20 A2987 RMK A01 T02830196  RH  059%=      5-min Rain = 0
KCL2 271847Z 17016G22KT 28/20 A2987 RMK A01 T02830198  RH  060%=      5-min Rain = 0
KCL2 271848Z 19015G20KT 29/20 A2987 RMK A01 T02860203  RH  061%=      5-min Rain = 0
KCL2 271849Z 19014KT 29/20 A2987 RMK A01 T02890203  RH  060%=      5-min Rain = 0
KCL2 271850Z 18012KT 29/20 A2987 RMK A01 T02900202  RH  059%=      5-min Rain = 0
KCL2 271851Z 18011KT 29/20 A2987 RMK A01 T02900203  RH  059%=      5-min Rain = 0
KCL2 271852Z 17014G19KT 29/20 A2987 RMK A01 T02900200  RH  058%=      5-min Rain = 0
KCL2 271853Z 18015G20KT 29/20 A2987 RMK A01 T02890200  RH  059%=      5-min Rain = 0
KCL2 271854Z 19016KT 29/20 A2987 RMK A01 T02880199  RH  058%=      5-min Rain = 0
KCL2 271855Z 18019G25KT 29/20 A2987 RMK A01 T02860195  RH  058%=      5-min Rain = 0
KCL2 271856Z 17017KT 28/19 A2987 RMK A01 T02830192  RH  058%=      5-min Rain = 0
KCL2 271857Z 16016KT 28/20 A2987 RMK A01 T02820195  RH  059%=      5-min Rain = 0
KCL2 271858Z 17017KT 28/19 A2987 RMK A01 T02830193  RH  058%=      5-min Rain = 0
KCL2 271859Z 16015KT 28/19 A2987 RMK A01 T02830192  RH  058%=      5-min Rain = 0
KCL2 271900Z 17016G21KT 28/20 A2987 RMK A01 T02820195  RH  059%=      5-min Rain = 0
KCL2 271901Z 18018KT 28/20 A2987 RMK A01 T02830195  RH  059%=      5-min Rain = 0
KCL2 271902Z 19019KT 29/20 A2987 RMK A01 T02850196  RH  059%=      5-min Rain = 0
KCL2 271903Z 20017KT 28/20 A2987 RMK A01 T02840196  RH  059%=      5-min Rain = 0
KCL2 271904Z 20017G22KT 28/20 A2987 RMK A01 T02840195  RH  059%=      5-min Rain = 0
KCL2 271905Z 19014G20KT 28/20 A2987 RMK A01 T02840197  RH  059%=      5-min Rain = 0
KCL2 271906Z 19015KT 29/20 A2987 RMK A01 T02850198  RH  059%=      5-min Rain = 0
KCL2 271907Z 18017G22KT 29/20 A2987 RMK A01 T02860196  RH  058%=      5-min Rain = 0
KCL2 271908Z 18020KT 29/20 A2987 RMK A01 T02860195  RH  058%=      5-min Rain = 0
KCL2 271909Z 20017G22KT 29/19 A2987 RMK A01 T02850194  RH  058%=      5-min Rain = 0
KCL2 271910Z 20017KT 28/20 A2987 RMK A01 T02840195  RH  059%=      5-min Rain = 0
KCL2 271911Z 20017KT 29/20 A2987 RMK A01 T02850195  RH  058%=      5-min Rain = 0
KCL2 271912Z 20017KT 28/19 A2986 RMK A01 T02840194  RH  058%=      5-min Rain = 0
KCL2 271913Z 19014KT 29/20 A2987 RMK A01 T02850197  RH  059%=      5-min Rain = 0
KCL2 271914Z 19015KT 29/19 A2986 RMK A01 T02850194  RH  058%=      5-min Rain = 0
KCL2 271915Z 18013KT 28/20 A2986 RMK A01 T02840195  RH  059%=      5-min Rain = 0
KCL2 271916Z 19016G21KT 29/20 A2986 RMK A01 T02850196  RH  059%=      5-min Rain = 0
KCL2 271917Z 18013G20KT 29/20 A2986 RMK A01 T02860201  RH  060%=      5-min Rain = 0
KCL2 271918Z 19019KT 29/20 A2986 RMK A01 T02890197  RH  058%=      5-min Rain = 0
KCL2 271919Z 19018KT 29/19 A2986 RMK A01 T02880194  RH  057%=      5-min Rain = 0
KCL2 271920Z 19018KT 29/20 A2986 RMK A01 T02860195  RH  058%=      5-min Rain = 0
KCL2 271921Z 19014KT 29/20 A2986 RMK A01 T02860196  RH  058%=      5-min Rain = 0
KCL2 271922Z 19014KT 29/20 A2986 RMK A01 T02860198  RH  059%=      5-min Rain = 0
KCL2 271923Z 18011KT 29/20 A2986 RMK A01 T02880202  RH  060%=      5-min Rain = 0
KCL2 271924Z 18012KT 29/20 A2986 RMK A01 T02910201  RH  058%=      5-min Rain = 0
KCL2 271925Z 18011KT 29/20 A2986 RMK A01 T02920202  RH  058%=      5-min Rain = 0
KCL2 271926Z 18015G20KT 29/20 A2986 RMK A01 T02930202  RH  058%=      5-min Rain = 0
KCL2 271927Z 18014KT 29/20 A2986 RMK A01 T02930201  RH  058%=      5-min Rain = 0
KCL2 271928Z 17014KT 29/20 A2986 RMK A01 T02930197  RH  056%=      5-min Rain = 0
KCL2 271929Z 18012KT 29/20 A2986 RMK A01 T02910196  RH  056%=      5-min Rain = 0
KCL2 271930Z 18015G20KT 29/20 A2985 RMK A01 T02900197  RH  057%=      5-min Rain = 0
KCL2 271931Z 18017KT 29/20 A2985 RMK A01 T02890196  RH  057%=      5-min Rain = 0
KCL2 271932Z 19013KT 29/20 A2986 RMK A01 T02880198  RH  058%=      5-min Rain = 0
KCL2 271933Z 19013KT 29/20 A2986 RMK A01 T02890199  RH  058%=      5-min Rain = 0
KCL2 271934Z 19012KT 29/20 A2986 RMK A01 T02910202  RH  059%=      5-min Rain = 0
KCL2 271935Z 18015KT 29/20 A2986 RMK A01 T02930197  RH  056%=      5-min Rain = 0
KCL2 271936Z 18013G19KT 29/20 A2986 RMK A01 T02910195  RH  056%=      5-min Rain = 0
KCL2 271937Z 18018G23KT 29/20 A2986 RMK A01 T02910195  RH  056%=      5-min Rain = 0
KCL2 271938Z 18016G22KT 29/19 A2985 RMK A01 T02890192  RH  056%=      5-min Rain = 0
KCL2 271939Z 17016KT 29/20 A2986 RMK A01 T02880197  RH  058%=      5-min Rain = 0
KCL2 271940Z 18015KT 29/20 A2986 RMK A01 T02910197  RH  057%=      5-min Rain = 0
KCL2 271941Z 19014KT 29/20 A2986 RMK A01 T02910195  RH  056%=      5-min Rain = 0
KCL2 271942Z 19014G20KT 29/20 A2986 RMK A01 T02900198  RH  058%=      5-min Rain = 0
KCL2 271943Z 19018KT 29/20 A2985 RMK A01 T02920197  RH  057%=      5-min Rain = 0
KCL2 271944Z 20014G19KT 29/20 A2985 RMK A01 T02920196  RH  056%=      5-min Rain = 0
KCL2 271945Z 20016KT 29/20 A2986 RMK A01 T02920197  RH  057%=      5-min Rain = 0
KCL2 271946Z 19014KT 29/19 A2986 RMK A01 T02920194  RH  056%=      5-min Rain = 0
KCL2 271947Z 19014KT 29/19 A2985 RMK A01 T02910194  RH  056%=      5-min Rain = 0
KCL2 271948Z 18012KT 29/20 A2986 RMK A01 T02910196  RH  057%=      5-min Rain = 0
KCL2 271949Z 17017KT 29/20 A2985 RMK A01 T02910195  RH  056%=      5-min Rain = 0
KCL2 271950Z 19016KT 29/19 A2985 RMK A01 T02910194  RH  056%=      5-min Rain = 0
KCL2 271951Z 17012KT 29/20 A2985 RMK A01 T02910196  RH  057%=      5-min Rain = 0
KCL2 271952Z 18014KT 29/20 A2985 RMK A01 T02910195  RH  056%=      5-min Rain = 0
KCL2 271953Z 18012G17KT 29/20 A2985 RMK A01 T02930200  RH  057%=      5-min Rain = 0
KCL2 271954Z 17014KT 30/19 A2985 RMK A01 T02950194  RH  055%=      5-min Rain = 0
KCL2 271955Z 19016KT 29/20 A2986 RMK A01 T02940195  RH  055%=      5-min Rain = 0
KCL2 271956Z 18014KT 29/19 A2985 RMK A01 T02920193  RH  055%=      5-min Rain = 0
KCL2 271957Z 18011KT 29/20 A2985 RMK A01 T02910195  RH  056%=      5-min Rain = 0
KCL2 271958Z 18010KT 29/20 A2985 RMK A01 T02910195  RH  056%=      5-min Rain = 0
KCL2 271959Z 18011G19KT 29/20 A2985 RMK A01 T02930198  RH  057%=      5-min Rain = 0
KCL2 272000Z 19017KT 29/20 A2985 RMK A01 T02940197  RH  056%=      5-min Rain = 0
KCL2 272001Z 19016KT 29/19 A2985 RMK A01 T02930192  RH  054%=      5-min Rain = 0
KCL2 272002Z 20013KT 29/19 A2985 RMK A01 T02910194  RH  056%=      5-min Rain = 0
KCL2 272003Z 18012KT 29/20 A2985 RMK A01 T02910195  RH  056%=      5-min Rain = 0
KCL2 272004Z 18016KT 29/19 A2985 RMK A01 T02900194  RH  056%=      5-min Rain = 0
KCL2 272005Z 18015KT 29/19 A2985 RMK A01 T02900193  RH  056%=      5-min Rain = 0
KCL2 272006Z 17014KT 29/20 A2985 RMK A01 T02900197  RH  057%=      5-min Rain = 0
KCL2 272007Z 17011KT 29/20 A2985 RMK A01 T02930199  RH  057%=      5-min Rain = 0
KCL2 272008Z 16014KT 30/20 A2985 RMK A01 T02960197  RH  055%=      5-min Rain = 0
KCL2 272009Z 17014G19KT 30/20 A2984 RMK A01 T02960197  RH  055%=      5-min Rain = 0
KCL2 272010Z 17013KT 30/20 A2985 RMK A01 T02950196  RH  055%=      5-min Rain = 0
KCL2 272011Z 18014KT 30/20 A2984 RMK A01 T02950197  RH  056%=      5-min Rain = 0
KCL2 272012Z 17015KT 29/20 A2984 RMK A01 T02940198  RH  056%=      5-min Rain = 0
KCL2 272013Z 18017KT 29/19 A2985 RMK A01 T02940194  RH  055%=      5-min Rain = 0
KCL2 272014Z 17015KT 29/19 A2984 RMK A01 T02940193  RH  054%=      5-min Rain = 0
KCL2 272015Z 18013KT 29/20 A2984 RMK A01 T02930195  RH  056%=      5-min Rain = 0
KCL2 272016Z 16016KT 29/19 A2984 RMK A01 T02940193  RH  055%=      5-min Rain = 0
KCL2 272017Z 16015KT 29/19 A2984 RMK A01 T02940191  RH  054%=      5-min Rain = 0
KCL2 272018Z 17013KT 29/19 A2984 RMK A01 T02940194  RH  055%=      5-min Rain = 0
KCL2 272019Z 17017KT 29/19 A2984 RMK A01 T02940193  RH  055%=      5-min Rain = 0
KCL2 272020Z 18014KT 29/19 A2984 RMK A01 T02940193  RH  055%=      5-min Rain = 0
KCL2 272021Z 18015KT 29/20 A2984 RMK A01 T02940195  RH  055%=      5-min Rain = 0
KCL2 272022Z 19015KT 29/20 A2984 RMK A01 T02940195  RH  055%=      5-min Rain = 0
KCL2 272023Z 19013KT 29/20 A2984 RMK A01 T02940195  RH  055%=      5-min Rain = 0
KCL2 272024Z 17011KT 29/20 A2984 RMK A01 T02940199  RH  057%=      5-min Rain = 0
KCL2 272025Z 17009KT 30/20 A2983 RMK A01 T02970199  RH  056%=      5-min Rain = 0
KCL2 272026Z 18010G15KT 30/20 A2983 RMK A01 T03000204  RH  056%=      5-min Rain = 0
KCL2 272027Z 18014G19KT 30/20 A2983 RMK A01 T03010197  RH  054%=      5-min Rain = 0
KCL2 272028Z 18015G20KT 30/20 A2983 RMK A01 T02990197  RH  054%=      5-min Rain = 0
KCL2 272029Z 19013KT 30/20 A2983 RMK A01 T02980197  RH  054%=      5-min Rain = 0
KCL2 272030Z 18009KT 30/20 A2983 RMK A01 T02970199  RH  056%=      5-min Rain = 0
KCL2 272031Z 18015KT 30/20 A2983 RMK A01 T02990200  RH  055%=      5-min Rain = 0
KCL2 272032Z 19014KT 30/20 A2983 RMK A01 T03000197  RH  054%=      5-min Rain = 0
KCL2 272033Z 18010KT 30/20 A2983 RMK A01 T02990199  RH  055%=      5-min Rain = 0
KCL2 272034Z 17010KT 30/20 A2983 RMK A01 T02990198  RH  055%=      5-min Rain = 0
KCL2 272035Z 17010G17KT 30/20 A2983 RMK A01 T02990201  RH  056%=      5-min Rain = 0
KCL2 272036Z 18016KT 30/20 A2983 RMK A01 T02990197  RH  054%=      5-min Rain = 0
KCL2 272037Z 18013KT 30/20 A2983 RMK A01 T02980197  RH  054%=      5-min Rain = 0
KCL2 272038Z 18014G19KT 30/20 A2983 RMK A01 T02970195  RH  054%=      5-min Rain = 0
KCL2 272039Z 18011KT 30/20 A2983 RMK A01 T02960197  RH  055%=      5-min Rain = 0
KCL2 272040Z 17013KT 30/20 A2983 RMK A01 T02980199  RH  055%=      5-min Rain = 0
KCL2 272041Z 17014KT 30/20 A2983 RMK A01 T02990196  RH  054%=      5-min Rain = 0
KCL2 272042Z 17014KT 30/19 A2983 RMK A01 T02990194  RH  053%=      5-min Rain = 0
KCL2 272043Z 17012KT 30/19 A2983 RMK A01 T02970194  RH  054%=      5-min Rain = 0
KCL2 272044Z 18012KT 30/19 A2983 RMK A01 T02970194  RH  054%=      5-min Rain = 0
KCL2 272045Z 19014KT 30/20 A2983 RMK A01 T02970196  RH  055%=      5-min Rain = 0
KCL2 272046Z 18012KT 30/20 A2983 RMK A01 T02970197  RH  055%=      5-min Rain = 0
KCL2 272047Z 18011G19KT 30/20 A2983 RMK A01 T02980200  RH  055%=      5-min Rain = 0
KCL2 272048Z 19016KT 30/20 A2983 RMK A01 T03000196  RH  054%=      5-min Rain = 0
KCL2 272049Z 18011KT 30/20 A2983 RMK A01 T02990197  RH  054%=      5-min Rain = 0
KCL2 272050Z 19011KT 30/20 A2983 RMK A01 T02980200  RH  056%=      5-min Rain = 0
KCL2 272051Z 18011G16KT 30/20 A2983 RMK A01 T03000198  RH  054%=      5-min Rain = 0
KCL2 272052Z 19011KT 30/20 A2983 RMK A01 T03010202  RH  056%=      5-min Rain = 0
KCL2 272053Z 19013KT 30/20 A2982 RMK A01 T03010196  RH  053%=      5-min Rain = 0
KCL2 272054Z 18012G19KT 30/20 A2982 RMK A01 T03000199  RH  055%=      5-min Rain = 0
KCL2 272055Z 19014KT 30/20 A2983 RMK A01 T03000198  RH  054%=      5-min Rain = 0
KCL2 272056Z 19013KT 30/20 A2983 RMK A01 T02990195  RH  054%=      5-min Rain = 0
KCL2 272057Z 18011KT 30/20 A2982 RMK A01 T02980198  RH  055%=      5-min Rain = 0
KCL2 272058Z 17014KT 30/20 A2982 RMK A01 T02990197  RH  054%=      5-min Rain = 0
KCL2 272059Z 17015G20KT 30/19 A2982 RMK A01 T03000194  RH  053%=      5-min Rain = 0
KCL2 272100Z 19014KT 30/20 A2982 RMK A01 T02990196  RH  054%=      5-min Rain = 0
KCL2 272101Z 19011KT 30/20 A2982 RMK A01 T02980199  RH  055%=      5-min Rain = 0
KCL2 272102Z 17011KT 30/20 A2982 RMK A01 T03000200  RH  055%=      5-min Rain = 0
KCL2 272103Z 17012KT 30/20 A2982 RMK A01 T03010197  RH  054%=      5-min Rain = 0
KCL2 272104Z 17011G16KT 30/20 A2982 RMK A01 T03010199  RH  054%=      5-min Rain = 0
KCL2 272105Z 16016G22KT 30/20 A2982 RMK A01 T03010196  RH  053%=      5-min Rain = 0
KCL2 272106Z 17017KT 30/19 A2982 RMK A01 T03020194  RH  053%=      5-min Rain = 0
KCL2 272107Z 17014G20KT 30/19 A2982 RMK A01 T03000193  RH  053%=      5-min Rain = 0
KCL2 272108Z 17013G19KT 30/19 A2982 RMK A01 T02990194  RH  053%=      5-min Rain = 0
KCL2 272109Z 17013KT 30/19 A2982 RMK A01 T02990193  RH  053%=      5-min Rain = 0
KCL2 272110Z 18015KT 30/20 A2981 RMK A01 T02980195  RH  054%=      5-min Rain = 0
KCL2 272111Z 18015G20KT 30/19 A2982 RMK A01 T02990194  RH  053%=      5-min Rain = 0
KCL2 272112Z 18014KT 30/19 A2981 RMK A01 T02980193  RH  053%=      5-min Rain = 0
KCL2 272113Z 17013KT 30/19 A2981 RMK A01 T02970193  RH  054%=      5-min Rain = 0
KCL2 272114Z 17013KT 30/19 A2981 RMK A01 T02970193  RH  054%=      5-min Rain = 0
KCL2 272115Z 18012G17KT 30/20 A2981 RMK A01 T02970196  RH  054%=      5-min Rain = 0
KCL2 272116Z 18013KT 30/20 A2981 RMK A01 T02990198  RH  055%=      5-min Rain = 0
KCL2 272117Z 17014KT 30/20 A2981 RMK A01 T02990195  RH  054%=      5-min Rain = 0
KCL2 272118Z 19014KT 30/20 A2981 RMK A01 T03000197  RH  054%=      5-min Rain = 0
KCL2 272119Z 19011KT 30/20 A2981 RMK A01 T03000197  RH  054%=      5-min Rain = 0
KCL2 272120Z 18015KT 30/20 A2981 RMK A01 T03010198  RH  054%=      5-min Rain = 0
KCL2 272121Z 18016KT 30/19 A2981 RMK A01 T03010191  RH  052%=      5-min Rain = 0
KCL2 272122Z 19017KT 30/19 A2981 RMK A01 T03000192  RH  052%=      5-min Rain = 0
KCL2 272123Z 18015KT 30/19 A2981 RMK A01 T02980192  RH  053%=      5-min Rain = 0
KCL2 272124Z 19013KT 30/19 A2981 RMK A01 T02970192  RH  053%=      5-min Rain = 0
KCL2 272125Z 18012KT 30/19 A2981 RMK A01 T02970194  RH  054%=      5-min Rain = 0
KCL2 272126Z 16011KT 30/20 A2981 RMK A01 T02980198  RH  055%=      5-min Rain = 0
KCL2 272127Z 17012KT 30/20 A2981 RMK A01 T03000196  RH  054%=      5-min Rain = 0
KCL2 272128Z 17017G22KT 30/19 A2981 RMK A01 T03010193  RH  053%=      5-min Rain = 0
KCL2 272129Z 17015KT 30/19 A2981 RMK A01 T02990192  RH  053%=      5-min Rain = 0
KCL2 272130Z 16017KT 30/19 A2981 RMK A01 T02970192  RH  053%=      5-min Rain = 0
KCL2 272131Z 17014KT 30/19 A2981 RMK A01 T02980193  RH  053%=      5-min Rain = 0
KCL2 272132Z 17013KT 30/19 A2981 RMK A01 T02990193  RH  053%=      5-min Rain = 0
KCL2 272133Z 16014G19KT 30/20 A2981 RMK A01 T03000195  RH  053%=      5-min Rain = 0
KCL2 272134Z 16017G22KT 30/19 A2981 RMK A01 T03000194  RH  053%=      5-min Rain = 0
KCL2 272135Z 18015G22KT 30/20 A2981 RMK A01 T03000195  RH  053%=      5-min Rain = 0
KCL2 272136Z 18017KT 30/19 A2981 RMK A01 T02990194  RH  053%=      5-min Rain = 0
KCL2 272137Z 18015G20KT 30/19 A2981 RMK A01 T02990193  RH  053%=      5-min Rain = 0
KCL2 272138Z 18013KT 30/19 A2981 RMK A01 T02990193  RH  053%=      5-min Rain = 0
KCL2 272139Z 18015KT 30/19 A2981 RMK A01 T02990192  RH  053%=      5-min Rain = 0
KCL2 272140Z 19018KT 30/19 A2981 RMK A01 T02980192  RH  053%=      5-min Rain = 0
KCL2 272141Z 19013KT 30/19 A2981 RMK A01 T02980194  RH  054%=      5-min Rain = 0
KCL2 272142Z 18015KT 30/19 A2981 RMK A01 T02980194  RH  054%=      5-min Rain = 0
KCL2 272143Z 17014KT 30/19 A2981 RMK A01 T02980194  RH  054%=      5-min Rain = 0
KCL2 272144Z 17016KT 30/19 A2981 RMK A01 T02980192  RH  053%=      5-min Rain = 0
KCL2 272145Z 16013KT 30/19 A298 RMK A01 T02990194  RH  053%=      5-min Rain = 0
KCL2 272146Z 18015KT 30/19 A298 RMK A01 T03000194  RH  053%=      5-min Rain = 0
KCL2 272147Z 18014KT 30/19 A298 RMK A01 T03010194  RH  053%=      5-min Rain = 0
KCL2 272148Z 18015G21KT 30/19 A298 RMK A01 T03010194  RH  053%=      5-min Rain = 0
KCL2 272149Z 19015KT 30/19 A298 RMK A01 T03000192  RH  053%=      5-min Rain = 0
KCL2 272150Z 18013KT 30/19 A298 RMK A01 T02990194  RH  054%=      5-min Rain = 0
KCL2 272151Z 18014KT 30/19 A298 RMK A01 T02980193  RH  053%=      5-min Rain = 0
KCL2 272152Z 18014G19KT 30/19 A298 RMK A01 T02990192  RH  053%=      5-min Rain = 0
KCL2 272153Z 17015KT 30/19 A298 RMK A01 T02980191  RH  052%=      5-min Rain = 0
KCL2 272154Z 17015KT 30/19 A298 RMK A01 T02990192  RH  053%=      5-min Rain = 0
KCL2 272155Z 17015KT 30/19 A298 RMK A01 T03000191  RH  052%=      5-min Rain = 0
KCL2 272156Z 18014KT 30/19 A298 RMK A01 T03000191  RH  052%=      5-min Rain = 0
KCL2 272157Z 18016G21KT 30/19 A298 RMK A01 T02990192  RH  053%=      5-min Rain = 0
KCL2 272158Z 16016KT 30/19 A298 RMK A01 T02990191  RH  052%=      5-min Rain = 0
KCL2 272159Z 17015KT 30/19 A298 RMK A01 T02990188  RH  051%=      5-min Rain = 0
KCL2 272200Z 18011KT 30/19 A298 RMK A01 T02980190  RH  052%=      5-min Rain = 0
KCL2 272201Z 18012KT 30/19 A298 RMK A01 T02980192  RH  053%=      5-min Rain = 0
KCL2 272202Z 17012G17KT 30/19 A298 RMK A01 T02980191  RH  052%=      5-min Rain = 0
KCL2 272203Z 17013KT 30/19 A298 RMK A01 T02990192  RH  053%=      5-min Rain = 0
KCL2 272204Z 16015KT 30/19 A2979 RMK A01 T02980191  RH  053%=      5-min Rain = 0
KCL2 272205Z 16013KT 30/19 A298 RMK A01 T02980192  RH  053%=      5-min Rain = 0
KCL2 272206Z 16014KT 30/19 A298 RMK A01 T02990194  RH  053%=      5-min Rain = 0
KCL2 272207Z 17010G15KT 30/19 A2979 RMK A01 T03010194  RH  053%=      5-min Rain = 0
KCL2 272208Z 16012G17KT 30/19 A2979 RMK A01 T03010194  RH  053%=      5-min Rain = 0
KCL2 272209Z 16011KT 30/19 A2979 RMK A01 T03020193  RH  052%=      5-min Rain = 0
KCL2 272210Z 15014KT 30/19 A2979 RMK A01 T03010193  RH  052%=      5-min Rain = 0
KCL2 272211Z 17015KT 30/20 A2979 RMK A01 T03010195  RH  053%=      5-min Rain = 0
KCL2 272212Z 17016KT 30/19 A2979 RMK A01 T03010191  RH  052%=      5-min Rain = 0
KCL2 272213Z 17015KT 30/19 A2979 RMK A01 T03000191  RH  052%=      5-min Rain = 0
KCL2 272214Z 17014KT 30/19 A2979 RMK A01 T03000189  RH  051%=      5-min Rain = 0
KCL2 272215Z 16014KT 30/19 A2979 RMK A01 T02990189  RH  052%=      5-min Rain = 0
KCL2 272216Z 15012G19KT 30/19 A2979 RMK A01 T02990190  RH  052%=      5-min Rain = 0
KCL2 272217Z 16016G22KT 30/19 A2979 RMK A01 T02990190  RH  052%=      5-min Rain = 0
KCL2 272218Z 18013G19KT 30/19 A2979 RMK A01 T02990192  RH  053%=      5-min Rain = 0
KCL2 272219Z 17015KT 30/19 A2979 RMK A01 T02990191  RH  053%=      5-min Rain = 0
KCL2 272220Z 16013G19KT 30/19 A2979 RMK A01 T02990192  RH  053%=      5-min Rain = 0
KCL2 272221Z 16017KT 30/19 A2979 RMK A01 T03000189  RH  052%=      5-min Rain = 0
KCL2 272222Z 16015KT 30/19 A2979 RMK A01 T03000191  RH  052%=      5-min Rain = 0
KCL2 272223Z 17014KT 30/19 A2979 RMK A01 T03000190  RH  052%=      5-min Rain = 0
KCL2 272224Z 18013KT 30/19 A2979 RMK A01 T02990194  RH  053%=      5-min Rain = 0
KCL2 272225Z 18017KT 30/19 A2979 RMK A01 T02990189  RH  052%=      5-min Rain = 0
KCL2 272226Z 16014G20KT 30/19 A2979 RMK A01 T02990191  RH  052%=      5-min Rain = 0
KCL2 272227Z 16012KT 30/20 A2979 RMK A01 T02990195  RH  054%=      5-min Rain = 0
KCL2 272228Z 16014KT 30/19 A2979 RMK A01 T03000191  RH  052%=      5-min Rain = 0
KCL2 272229Z 17015G20KT 30/19 A2979 RMK A01 T03000191  RH  052%=      5-min Rain = 0
KCL2 272230Z 16017KT 30/19 A2979 RMK A01 T02990188  RH  052%=      5-min Rain = 0
KCL2 272231Z 16015KT 30/19 A2979 RMK A01 T02980190  RH  052%=      5-min Rain = 0
KCL2 272232Z 17015KT 30/19 A2978 RMK A01 T02980189  RH  052%=      5-min Rain = 0
KCL2 272233Z 17014KT 30/19 A2978 RMK A01 T02980190  RH  052%=      5-min Rain = 0
KCL2 272234Z 16013KT 30/19 A2978 RMK A01 T02990191  RH  053%=      5-min Rain = 0
KCL2 272235Z 16012KT 30/19 A2978 RMK A01 T02980192  RH  053%=      5-min Rain = 0
KCL2 272236Z 15016KT 30/19 A2978 RMK A01 T02990191  RH  052%=      5-min Rain = 0
KCL2 272237Z 15017KT 30/19 A2978 RMK A01 T02980189  RH  052%=      5-min Rain = 0
KCL2 272238Z 15017KT 30/19 A2978 RMK A01 T02970188  RH  052%=      5-min Rain = 0
KCL2 272239Z 15015G20KT 30/19 A2978 RMK A01 T02970188  RH  052%=      5-min Rain = 0
KCL2 272240Z 15011KT 30/19 A2978 RMK A01 T02960191  RH  053%=      5-min Rain = 0
KCL2 272241Z 15013KT 30/19 A2978 RMK A01 T02970192  RH  053%=      5-min Rain = 0
KCL2 272242Z 15012KT 30/19 A2978 RMK A01 T02990193  RH  053%=      5-min Rain = 0
KCL2 272243Z 16013G19KT 30/19 A2978 RMK A01 T02990193  RH  053%=      5-min Rain = 0
KCL2 272244Z 15017KT 30/19 A2978 RMK A01 T02990189  RH  052%=      5-min Rain = 0
KCL2 272245Z 16018KT 30/19 A2978 RMK A01 T02990187  RH  051%=      5-min Rain = 0
KCL2 272246Z 17013KT 30/19 A2978 RMK A01 T02970189  RH  052%=      5-min Rain = 0
KCL2 272247Z 17011KT 30/19 A2978 RMK A01 T02970190  RH  053%=      5-min Rain = 0
KCL2 272248Z 17010KT 30/19 A2978 RMK A01 T02970192  RH  053%=      5-min Rain = 0
KCL2 272249Z 16009KT 30/19 A2978 RMK A01 T02980194  RH  053%=      5-min Rain = 0
KCL2 272250Z 16010KT 30/20 A2978 RMK A01 T03000196  RH  054%=      5-min Rain = 0
KCL2 272251Z 15012G18KT 30/19 A2978 RMK A01 T03000193  RH  052%=      5-min Rain = 0
KCL2 272252Z 17014KT 30/19 A2978 RMK A01 T03000192  RH  052%=      5-min Rain = 0
KCL2 272253Z 17016KT 30/19 A2977 RMK A01 T02990191  RH  052%=      5-min Rain = 0
KCL2 272254Z 17012KT 30/19 A2978 RMK A01 T02980192  RH  053%=      5-min Rain = 0
KCL2 272255Z 16013G22KT 30/19 A2978 RMK A01 T02980194  RH  053%=      5-min Rain = 0
KCL2 272256Z 16017KT 30/19 A2977 RMK A01 T02990189  RH  052%=      5-min Rain = 0
KCL2 272257Z 16012KT 30/19 A2977 RMK A01 T02980192  RH  053%=      5-min Rain = 0
KCL2 272258Z 16015G22KT 30/19 A2977 RMK A01 T02980191  RH  053%=      5-min Rain = 0
KCL2 272259Z 15018G23KT 30/19 A2977 RMK A01 T02980188  RH  052%=      5-min Rain = 0
KCL2 272300Z 16015G20KT 30/19 A2977 RMK A01 T02970188  RH  052%=      5-min Rain = 0
KCL2 272301Z 16019KT 30/19 A2977 RMK A01 T02960187  RH  052%=      5-min Rain = 0
KCL2 272302Z 16018KT 30/19 A2977 RMK A01 T02960187  RH  052%=      5-min Rain = 0
KCL2 272303Z 16016KT 30/19 A2977 RMK A01 T02950188  RH  052%=      5-min Rain = 0
KCL2 272304Z 17016KT 30/19 A2977 RMK A01 T02950187  RH  052%=      5-min Rain = 0
KCL2 272305Z 16015KT 30/19 A2977 RMK A01 T02960190  RH  053%=      5-min Rain = 0
KCL2 272306Z 16016G21KT 30/19 A2977 RMK A01 T02960187  RH  052%=      5-min Rain = 0
KCL2 272307Z 15016KT 30/19 A2977 RMK A01 T02960187  RH  052%=      5-min Rain = 0
KCL2 272308Z 14013G18KT 30/19 A2977 RMK A01 T02960189  RH  053%=      5-min Rain = 0
KCL2 272309Z 15017KT 30/19 A2977 RMK A01 T02960188  RH  052%=      5-min Rain = 0
KCL2 272310Z 15016KT 30/19 A2977 RMK A01 T02960188  RH  052%=      5-min Rain = 0
KCL2 272311Z 16016G21KT 30/19 A2977 RMK A01 T02960187  RH  052%=      5-min Rain = 0
KCL2 272312Z 16018KT 30/19 A2977 RMK A01 T02960187  RH  052%=      5-min Rain = 0
KCL2 272313Z 17016KT 30/19 A2977 RMK A01 T02960186  RH  052%=      5-min Rain = 0
KCL2 272314Z 17012G18KT 30/19 A2977 RMK A01 T02960189  RH  053%=      5-min Rain = 0
KCL2 272315Z 17014KT 30/19 A2977 RMK A01 T02960190  RH  053%=      5-min Rain = 0
KCL2 272316Z 17014KT 30/19 A2977 RMK A01 T02970189  RH  052%=      5-min Rain = 0
KCL2 272317Z 17013KT 30/19 A2977 RMK A01 T02960189  RH  053%=      5-min Rain = 0
KCL2 272318Z 16011KT 30/19 A2977 RMK A01 T02970191  RH  053%=      5-min Rain = 0
KCL2 272319Z 17018G23KT 30/19 A2977 RMK A01 T02970188  RH  052%=      5-min Rain = 0
KCL2 272320Z 17014KT 30/19 A2976 RMK A01 T02970186  RH  051%=      5-min Rain = 0
KCL2 272321Z 16011KT 30/19 A2976 RMK A01 T02960190  RH  053%=      5-min Rain = 0
KCL2 272322Z 16016G21KT 30/19 A2976 RMK A01 T02960190  RH  053%=      5-min Rain = 0
KCL2 272323Z 15014KT 30/19 A2976 RMK A01 T02960188  RH  052%=      5-min Rain = 0
KCL2 272324Z 16017KT 30/19 A2976 RMK A01 T02950188  RH  052%=      5-min Rain = 0
KCL2 272325Z 16015KT 30/19 A2976 RMK A01 T02950186  RH  052%=      5-min Rain = 0
KCL2 272326Z 16016KT 29/19 A2976 RMK A01 T02940187  RH  052%=      5-min Rain = 0
KCL2 272327Z 16011KT 29/19 A2976 RMK A01 T02940187  RH  053%=      5-min Rain = 0
KCL2 272328Z 16013KT 29/19 A2976 RMK A01 T02940188  RH  053%=      5-min Rain = 0
KCL2 272329Z 16017KT 29/19 A2976 RMK A01 T02940186  RH  052%=      5-min Rain = 0
KCL2 272330Z 16017KT 29/19 A2976 RMK A01 T02940185  RH  052%=      5-min Rain = 0
KCL2 272331Z 16012KT 29/19 A2976 RMK A01 T02930186  RH  052%=      5-min Rain = 0
KCL2 272332Z 16013KT 29/19 A2976 RMK A01 T02930187  RH  053%=      5-min Rain = 0
KCL2 272333Z 16011KT 29/19 A2976 RMK A01 T02930188  RH  053%=      5-min Rain = 0
KCL2 272334Z 15014KT 29/19 A2976 RMK A01 T02940189  RH  053%=      5-min Rain = 0
KCL2 272335Z 15013G18KT 29/19 A2976 RMK A01 T02940188  RH  053%=      5-min Rain = 0
KCL2 272336Z 16011G16KT 29/19 A2976 RMK A01 T02940189  RH  053%=      5-min Rain = 0
KCL2 272337Z 15012KT 29/19 A2976 RMK A01 T02930190  RH  054%=      5-min Rain = 0
KCL2 272338Z 16012KT 29/19 A2976 RMK A01 T02940190  RH  054%=      5-min Rain = 0
KCL2 272339Z 16014KT 29/19 A2976 RMK A01 T02940190  RH  054%=      5-min Rain = 0
KCL2 272340Z 16016KT 29/19 A2976 RMK A01 T02940189  RH  053%=      5-min Rain = 0
KCL2 272341Z 16015KT 29/19 A2976 RMK A01 T02930188  RH  053%=      5-min Rain = 0
KCL2 272342Z 15011KT 29/19 A2976 RMK A01 T02930190  RH  054%=      5-min Rain = 0
KCL2 272343Z 15015KT 29/19 A2976 RMK A01 T02930189  RH  053%=      5-min Rain = 0
KCL2 272344Z 15017G23KT 29/19 A2976 RMK A01 T02930187  RH  053%=      5-min Rain = 0
KCL2 272345Z 15013KT 29/19 A2976 RMK A01 T02920188  RH  053%=      5-min Rain = 0
KCL2 272346Z 16015G20KT 29/19 A2976 RMK A01 T02920188  RH  053%=      5-min Rain = 0
KCL2 272347Z 15013KT 29/19 A2976 RMK A01 T02920188  RH  054%=      5-min Rain = 0
KCL2 272348Z 16011KT 29/19 A2976 RMK A01 T02920190  RH  054%=      5-min Rain = 0
KCL2 272349Z 14009KT 29/19 A2976 RMK A01 T02920192  RH  055%=      5-min Rain = 0
KCL2 272350Z 15010KT 29/19 A2976 RMK A01 T02920193  RH  055%=      5-min Rain = 0
KCL2 272351Z 15012G17KT 29/19 A2976 RMK A01 T02920192  RH  055%=      5-min Rain = 0
KCL2 272352Z 15012KT 29/19 A2975 RMK A01 T02920191  RH  054%=      5-min Rain = 0
KCL2 272353Z 15012KT 29/19 A2975 RMK A01 T02910191  RH  055%=      5-min Rain = 0
KCL2 272354Z 15013KT 29/19 A2975 RMK A01 T02920192  RH  055%=      5-min Rain = 0
KCL2 272355Z 16012G17KT 29/19 A2975 RMK A01 T02910192  RH  055%=      5-min Rain = 0
KCL2 272356Z 16010KT 29/19 A2975 RMK A01 T02910193  RH  056%=      5-min Rain = 0
KCL2 272357Z 16014G19KT 29/19 A2975 RMK A01 T02910192  RH  055%=      5-min Rain = 0
KCL2 272358Z 17015KT 29/19 A2975 RMK A01 T02910193  RH  056%=      5-min Rain = 0
KCL2 272359Z 16016G21KT 29/19 A2975 RMK A01 T02910191  RH  055%=      5-min Rain = 0
KCL2 280000Z 16013G18KT 29/19 A2975 RMK A01 T02900192  RH  055%=      5-min Rain = 0
KCL2 280001Z 15011KT 29/19 A2975 RMK A01 T02900194  RH  056%=      5-min Rain = 0
KCL2 280002Z 16013KT 29/19 A2975 RMK A01 T02900194  RH  056%=      5-min Rain = 0
KCL2 280003Z 16014KT 29/19 A2975 RMK A01 T02900193  RH  056%=      5-min Rain = 0
KCL2 280004Z 15016KT 29/19 A2975 RMK A01 T02900193  RH  056%=      5-min Rain = 0
KCL2 280005Z 15014KT 29/19 A2975 RMK A01 T02900193  RH  056%=      5-min Rain = 0
KCL2 280006Z 16013KT 29/19 A2975 RMK A01 T02890194  RH  056%=      5-min Rain = 0
KCL2 280007Z 15014G19KT 29/19 A2975 RMK A01 T02890194  RH  056%=      5-min Rain = 0
KCL2 280008Z 16012KT 29/20 A2975 RMK A01 T02890195  RH  057%=      5-min Rain = 0
KCL2 280009Z 15010KT 29/20 A2975 RMK A01 T02890197  RH  057%=      5-min Rain = 0
KCL2 280010Z 15012G17KT 29/20 A2975 RMK A01 T02890197  RH  057%=      5-min Rain = 0
KCL2 280011Z 16012KT 29/20 A2975 RMK A01 T02890195  RH  057%=      5-min Rain = 0
KCL2 280012Z 15014G20KT 29/20 A2975 RMK A01 T02890196  RH  057%=      5-min Rain = 0
KCL2 280013Z 15018KT 29/20 A2975 RMK A01 T02880195  RH  057%=      5-min Rain = 0
KCL2 280014Z 16017KT 29/19 A2975 RMK A01 T02880194  RH  057%=      5-min Rain = 0
KCL2 280015Z 16019KT 29/20 A2975 RMK A01 T02880195  RH  057%=      5-min Rain = 0
KCL2 280016Z 16016KT 29/20 A2975 RMK A01 T02870195  RH  057%=      5-min Rain = 0
KCL2 280017Z 15013KT 29/20 A2975 RMK A01 T02870196  RH  058%=      5-min Rain = 0
KCL2 280018Z 16014G20KT 29/20 A2975 RMK A01 T02860196  RH  058%=      5-min Rain = 0
KCL2 280019Z 16014KT 29/20 A2975 RMK A01 T02860197  RH  058%=      5-min Rain = 0
KCL2 280020Z 16013KT 29/20 A2975 RMK A01 T02860196  RH  058%=      5-min Rain = 0
KCL2 280021Z 16013KT 29/20 A2975 RMK A01 T02860197  RH  059%=      5-min Rain = 0
KCL2 280022Z 16017G23KT 29/20 A2975 RMK A01 T02860196  RH  058%=      5-min Rain = 0
KCL2 280023Z 15017G22KT 29/20 A2975 RMK A01 T02850196  RH  058%=      5-min Rain = 0
KCL2 280024Z 15016KT 29/20 A2975 RMK A01 T02850196  RH  059%=      5-min Rain = 0
KCL2 280025Z 16016KT 29/20 A2975 RMK A01 T02850197  RH  059%=      5-min Rain = 0
KCL2 280026Z 16015KT 28/20 A2975 RMK A01 T02840196  RH  059%=      5-min Rain = 0
KCL2 280027Z 15013KT 28/20 A2975 RMK A01 T02840197  RH  059%=      5-min Rain = 0
KCL2 280028Z 16012KT 28/20 A2975 RMK A01 T02840198  RH  060%=      5-min Rain = 0
KCL2 280029Z 16014KT 28/20 A2975 RMK A01 T02840198  RH  060%=      5-min Rain = 0
KCL2 280030Z 15015KT 28/20 A2975 RMK A01 T02840198  RH  060%=      5-min Rain = 0
KCL2 280031Z 16014KT 28/20 A2975 RMK A01 T02830198  RH  060%=      5-min Rain = 0
KCL2 280032Z 16015KT 28/20 A2975 RMK A01 T02830199  RH  060%=      5-min Rain = 0
KCL2 280033Z 16016KT 28/20 A2975 RMK A01 T02830198  RH  060%=      5-min Rain = 0
KCL2 280034Z 16015KT 28/20 A2975 RMK A01 T02830198  RH  060%=      5-min Rain = 0
KCL2 280035Z 16016G21KT 28/20 A2975 RMK A01 T02820198  RH  060%=      5-min Rain = 0
KCL2 280036Z 16014KT 28/20 A2975 RMK A01 T02820198  RH  060%=      5-min Rain = 0
KCL2 280037Z 16012KT 28/20 A2975 RMK A01 T02830199  RH  061%=      5-min Rain = 0
KCL2 280038Z 16012G17KT 28/20 A2975 RMK A01 T02820199  RH  061%=      5-min Rain = 0
KCL2 280039Z 16014KT 28/20 A2975 RMK A01 T02820199  RH  061%=      5-min Rain = 0
KCL2 280040Z 15012KT 28/20 A2975 RMK A01 T02810200  RH  061%=      5-min Rain = 0
KCL2 280041Z 16012KT 28/20 A2975 RMK A01 T02810200  RH  061%=      5-min Rain = 0
KCL2 280042Z 16012G19KT 28/20 A2976 RMK A01 T02800200  RH  062%=      5-min Rain = 0
KCL2 280043Z 16011G16KT 28/20 A2975 RMK A01 T02800200  RH  062%=      5-min Rain = 0
KCL2 280044Z 16012KT 28/20 A2975 RMK A01 T02800201  RH  062%=      5-min Rain = 0
KCL2 280045Z 16014KT 28/20 A2975 RMK A01 T02790200  RH  062%=      5-min Rain = 0
KCL2 280046Z 16014KT 28/20 A2975 RMK A01 T02790200  RH  062%=      5-min Rain = 0
KCL2 280047Z 15013KT 28/20 A2975 RMK A01 T02790200  RH  062%=      5-min Rain = 0
KCL2 280048Z 16014KT 28/20 A2975 RMK A01 T02790200  RH  062%=      5-min Rain = 0
KCL2 280049Z 15014KT 28/20 A2975 RMK A01 T02790200  RH  062%=      5-min Rain = 0
KCL2 280050Z 16012KT 28/20 A2975 RMK A01 T02790200  RH  062%=      5-min Rain = 0
KCL2 280051Z 16012KT 28/20 A2975 RMK A01 T02780200  RH  063%=      5-min Rain = 0
KCL2 280052Z 16013KT 28/20 A2975 RMK A01 T02780200  RH  063%=      5-min Rain = 0
KCL2 280053Z 16012KT 28/20 A2975 RMK A01 T02770200  RH  063%=      5-min Rain = 0
KCL2 280054Z 16012KT 28/20 A2975 RMK A01 T02770201  RH  063%=      5-min Rain = 0
KCL2 280055Z 15011KT 28/20 A2975 RMK A01 T02770201  RH  063%=      5-min Rain = 0
KCL2 280056Z 15014G19KT 28/20 A2975 RMK A01 T02760201  RH  063%=      5-min Rain = 0
KCL2 280057Z 16013KT 28/20 A2975 RMK A01 T02760201  RH  063%=      5-min Rain = 0
KCL2 280058Z 15013KT 28/20 A2975 RMK A01 T02770201  RH  063%=      5-min Rain = 0
KCL2 280059Z 15012G17KT 28/20 A2975 RMK A01 T02760201  RH  064%=      5-min Rain = 0
KCL2 280100Z 16013KT 28/20 A2975 RMK A01 T02760201  RH  064%=      5-min Rain = 0
KCL2 280101Z 16012KT 28/20 A2976 RMK A01 T02760201  RH  064%=      5-min Rain = 0
KCL2 280102Z 16011KT 28/20 A2976 RMK A01 T02750201  RH  064%=      5-min Rain = 0
KCL2 280103Z 16011KT 28/20 A2975 RMK A01 T02750201  RH  064%=      5-min Rain = 0
KCL2 280104Z 16013KT 27/20 A2976 RMK A01 T02740201  RH  064%=      5-min Rain = 0
KCL2 280105Z 16013KT 27/20 A2975 RMK A01 T02740201  RH  064%=      5-min Rain = 0
KCL2 280106Z 16013KT 27/20 A2976 RMK A01 T02740201  RH  064%=      5-min Rain = 0
KCL2 280107Z 16017KT 27/20 A2975 RMK A01 T02740200  RH  064%=      5-min Rain = 0
KCL2 280108Z 16014KT 27/20 A2975 RMK A01 T02740200  RH  064%=      5-min Rain = 0
KCL2 280109Z 15015KT 28/20 A2976 RMK A01 T02750200  RH  064%=      5-min Rain = 0
KCL2 280110Z 17014KT 28/20 A2976 RMK A01 T02750201  RH  064%=      5-min Rain = 0
KCL2 280111Z 17011KT 27/20 A2976 RMK A01 T02740200  RH  064%=      5-min Rain = 0
KCL2 280112Z 16012KT 27/20 A2976 RMK A01 T02730201  RH  065%=      5-min Rain = 0
KCL2 280113Z 16011KT 27/20 A2976 RMK A01 T02730200  RH  065%=      5-min Rain = 0
KCL2 280114Z 16012KT 27/20 A2976 RMK A01 T02730201  RH  065%=      5-min Rain = 0
KCL2 280115Z 17013KT 27/20 A2976 RMK A01 T02720200  RH  065%=      5-min Rain = 0
KCL2 280116Z 16012KT 27/20 A2976 RMK A01 T02720200  RH  065%=      5-min Rain = 0
KCL2 280117Z 16012KT 27/20 A2976 RMK A01 T02720200  RH  065%=      5-min Rain = 0
KCL2 280118Z 16012KT 27/20 A2976 RMK A01 T02720200  RH  065%=      5-min Rain = 0
KCL2 280119Z 16013G18KT 27/20 A2976 RMK A01 T02720200  RH  065%=      5-min Rain = 0
KCL2 280120Z 16012KT 27/20 A2976 RMK A01 T02710200  RH  065%=      5-min Rain = 0
KCL2 280121Z 16011G19KT 27/20 A2976 RMK A01 T02710201  RH  065%=      5-min Rain = 0
KCL2 280122Z 17012KT 27/20 A2976 RMK A01 T02700200  RH  065%=      5-min Rain = 0
KCL2 280123Z 16013G18KT 27/20 A2976 RMK A01 T02700200  RH  065%=      5-min Rain = 0
KCL2 280124Z 17013KT 27/20 A2976 RMK A01 T02700200  RH  065%=      5-min Rain = 0
KCL2 280125Z 17013KT 27/20 A2976 RMK A01 T02700199  RH  065%=      5-min Rain = 0
KCL2 280126Z 16011KT 27/20 A2976 RMK A01 T02700199  RH  065%=      5-min Rain = 0
KCL2 280127Z 16012G18KT 27/20 A2976 RMK A01 T02700200  RH  066%=      5-min Rain = 0
KCL2 280128Z 16012KT 27/20 A2976 RMK A01 T02690200  RH  066%=      5-min Rain = 0
KCL2 280129Z 16013KT 27/20 A2976 RMK A01 T02690200  RH  066%=      5-min Rain = 0
KCL2 280130Z 16014KT 27/20 A2976 RMK A01 T02690199  RH  066%=      5-min Rain = 0
KCL2 280131Z 16014KT 27/20 A2976 RMK A01 T02690199  RH  066%=      5-min Rain = 0
KCL2 280132Z 16014KT 27/20 A2976 RMK A01 T02690199  RH  066%=      5-min Rain = 0
KCL2 280133Z 16014G20KT 27/20 A2976 RMK A01 T02690199  RH  066%=      5-min Rain = 0
KCL2 280134Z 16015KT 27/20 A2976 RMK A01 T02690199  RH  066%=      5-min Rain = 0
KCL2 280135Z 16013KT 27/20 A2976 RMK A01 T02690199  RH  066%=      5-min Rain = 0
KCL2 280136Z 16012KT 27/20 A2976 RMK A01 T02690200  RH  066%=      5-min Rain = 0
KCL2 280137Z 16013KT 27/20 A2976 RMK A01 T02680199  RH  066%=      5-min Rain = 0
KCL2 280138Z 16013KT 27/20 A2976 RMK A01 T02680200  RH  066%=      5-min Rain = 0
KCL2 280139Z 16010KT 27/20 A2976 RMK A01 T02680199  RH  066%=      5-min Rain = 0
KCL2 280140Z 16014KT 27/20 A2976 RMK A01 T02680199  RH  066%=      5-min Rain = 0
KCL2 280141Z 16016KT 27/20 A2976 RMK A01 T02670198  RH  066%=      5-min Rain = 0
KCL2 280142Z 16015KT 27/20 A2976 RMK A01 T02680198  RH  066%=      5-min Rain = 0
KCL2 280143Z 16013KT 27/20 A2976 RMK A01 T02680199  RH  066%=      5-min Rain = 0
KCL2 280144Z 16012KT 27/20 A2976 RMK A01 T02670199  RH  066%=      5-min Rain = 0
KCL2 280145Z 16013KT 27/20 A2976 RMK A01 T02670199  RH  066%=      5-min Rain = 0
KCL2 280146Z 16012G18KT 27/20 A2976 RMK A01 T02670198  RH  066%=      5-min Rain = 0
KCL2 280147Z 15012KT 27/20 A2976 RMK A01 T02660199  RH  066%=      5-min Rain = 0
KCL2 280148Z 15014KT 27/20 A2976 RMK A01 T02660198  RH  066%=      5-min Rain = 0
KCL2 280149Z 15012KT 27/20 A2976 RMK A01 T02660198  RH  066%=      5-min Rain = 0
KCL2 280150Z 15010KT 27/20 A2976 RMK A01 T02660199  RH  067%=      5-min Rain = 0
KCL2 280151Z 15013G19KT 27/20 A2976 RMK A01 T02650199  RH  067%=      5-min Rain = 0
KCL2 280152Z 16012G17KT 26/20 A2976 RMK A01 T02640198  RH  067%=      5-min Rain = 0
KCL2 280153Z 16012KT 26/20 A2976 RMK A01 T02640198  RH  067%=      5-min Rain = 0
KCL2 280154Z 15011KT 26/20 A2976 RMK A01 T02640199  RH  067%=      5-min Rain = 0
KCL2 280155Z 16014KT 26/20 A2976 RMK A01 T02640198  RH  067%=      5-min Rain = 0
KCL2 280156Z 16013KT 26/20 A2976 RMK A01 T02640198  RH  067%=      5-min Rain = 0
KCL2 280157Z 15013KT 26/20 A2976 RMK A01 T02640198  RH  067%=      5-min Rain = 0
KCL2 280158Z 16010KT 26/20 A2976 RMK A01 T02640199  RH  067%=      5-min Rain = 0
KCL2 280159Z 15009KT 26/20 A2976 RMK A01 T02630199  RH  068%=      5-min Rain = 0
KCL2 280200Z 15010KT 26/20 A2976 RMK A01 T02620199  RH  068%=      5-min Rain = 0
KCL2 280201Z 15009KT 26/20 A2976 RMK A01 T02620199  RH  068%=      5-min Rain = 0
KCL2 280202Z 15009KT 26/20 A2976 RMK A01 T02610199  RH  069%=      5-min Rain = 0
KCL2 280203Z 15009KT 26/20 A2976 RMK A01 T02610200  RH  069%=      5-min Rain = 0
KCL2 280204Z 15008KT 26/20 A2976 RMK A01 T02600200  RH  069%=      5-min Rain = 0
KCL2 280205Z 15009KT 26/20 A2976 RMK A01 T02590200  RH  070%=      5-min Rain = 0
KCL2 280206Z 14009KT 26/20 A2976 RMK A01 T02580200  RH  070%=      5-min Rain = 0
KCL2 280207Z 14008KT 26/20 A2976 RMK A01 T02570200  RH  071%=      5-min Rain = 0
KCL2 280208Z 14010KT 26/20 A2976 RMK A01 T02570201  RH  071%=      5-min Rain = 0
KCL2 280209Z 14010KT 26/20 A2976 RMK A01 T02570201  RH  071%=      5-min Rain = 0
KCL2 280210Z 14008KT 26/20 A2976 RMK A01 T02560201  RH  072%=      5-min Rain = 0
KCL2 280211Z 14008KT 26/20 A2976 RMK A01 T02560201  RH  072%=      5-min Rain = 0
KCL2 280212Z 14009KT 26/20 A2976 RMK A01 T02550202  RH  072%=      5-min Rain = 0
KCL2 280213Z 14009KT 26/20 A2976 RMK A01 T02550201  RH  072%=      5-min Rain = 0
KCL2 280214Z 15010KT 25/20 A2976 RMK A01 T02540201  RH  073%=      5-min Rain = 0
KCL2 280215Z 15011KT 25/20 A2976 RMK A01 T02540202  RH  073%=      5-min Rain = 0
KCL2 280216Z 15012KT 25/20 A2976 RMK A01 T02540202  RH  072%=      5-min Rain = 0
KCL2 280217Z 15011KT 25/20 A2976 RMK A01 T02540201  RH  072%=      5-min Rain = 0
KCL2 280218Z 15010KT 25/20 A2976 RMK A01 T02540201  RH  072%=      5-min Rain = 0
KCL2 280219Z 15010KT 26/20 A2977 RMK A01 T02550201  RH  072%=      5-min Rain = 0
KCL2 280220Z 15011KT 25/20 A2977 RMK A01 T02540201  RH  072%=      5-min Rain = 0
KCL2 280221Z 15011KT 25/20 A2976 RMK A01 T02540201  RH  072%=      5-min Rain = 0
KCL2 280222Z 15009G14KT 25/20 A2977 RMK A01 T02540201  RH  073%=      5-min Rain = 0
KCL2 280223Z 15009KT 25/20 A2977 RMK A01 T02540201  RH  073%=      5-min Rain = 0
KCL2 280224Z 15010KT 25/20 A2977 RMK A01 T02530201  RH  073%=      5-min Rain = 0
KCL2 280225Z 15008G13KT 25/20 A2977 RMK A01 T02530201  RH  073%=      5-min Rain = 0
KCL2 280226Z 15012KT 25/20 A2977 RMK A01 T02530201  RH  073%=      5-min Rain = 0
KCL2 280227Z 15012KT 25/20 A2977 RMK A01 T02530200  RH  072%=      5-min Rain = 0
KCL2 280228Z 15011KT 25/20 A2977 RMK A01 T02530200  RH  072%=      5-min Rain = 0
KCL2 280229Z 15011KT 25/20 A2977 RMK A01 T02530199  RH  072%=      5-min Rain = 0
KCL2 280230Z 15009KT 25/20 A2977 RMK A01 T02540199  RH  072%=      5-min Rain = 0
KCL2 280231Z 16012KT 25/20 A2976 RMK A01 T02540200  RH  072%=      5-min Rain = 0
KCL2 280232Z 15012KT 25/20 A2976 RMK A01 T02530200  RH  072%=      5-min Rain = 0
KCL2 280233Z 15013KT 25/20 A2976 RMK A01 T02530199  RH  072%=      5-min Rain = 0
KCL2 280234Z 15010KT 25/20 A2977 RMK A01 T02540199  RH  072%=      5-min Rain = 0
KCL2 280235Z 15013G19KT 25/20 A2977 RMK A01 T02540199  RH  072%=      5-min Rain = 0
KCL2 280236Z 15011KT 25/20 A2977 RMK A01 T02540198  RH  071%=      5-min Rain = 0
KCL2 280237Z 15011KT 25/20 A2977 RMK A01 T02540199  RH  071%=      5-min Rain = 0
KCL2 280238Z 15011KT 25/20 A2977 RMK A01 T02530199  RH  072%=      5-min Rain = 0
KCL2 280239Z 16014G20KT 25/20 A2977 RMK A01 T02530198  RH  071%=      5-min Rain = 0
KCL2 280240Z 16015G20KT 25/20 A2977 RMK A01 T02540197  RH  071%=      5-min Rain = 0
KCL2 280241Z 15013KT 26/20 A2977 RMK A01 T02550198  RH  071%=      5-min Rain = 0
KCL2 280242Z 15012KT 25/20 A2977 RMK A01 T02540198  RH  071%=      5-min Rain = 0
KCL2 280243Z 15014KT 25/20 A2977 RMK A01 T02540198  RH  071%=      5-min Rain = 0
KCL2 280244Z 15014G19KT 25/20 A2977 RMK A01 T02540197  RH  071%=      5-min Rain = 0
KCL2 280245Z 16014KT 25/20 A2977 RMK A01 T02540197  RH  071%=      5-min Rain = 0
KCL2 280246Z 16014KT 25/20 A2976 RMK A01 T02540197  RH  071%=      5-min Rain = 0
KCL2 280247Z 15010KT 25/20 A2977 RMK A01 T02540197  RH  071%=      5-min Rain = 0
KCL2 280248Z 15013KT 25/20 A2977 RMK A01 T02530197  RH  071%=      5-min Rain = 0
KCL2 280249Z 15011KT 25/20 A2976 RMK A01 T02530197  RH  071%=      5-min Rain = 0
KCL2 280250Z 15011KT 25/20 A2976 RMK A01 T02530197  RH  071%=      5-min Rain = 0
KCL2 280251Z 15011KT 25/20 A2976 RMK A01 T02530197  RH  071%=      5-min Rain = 0
KCL2 280252Z 15014G19KT 25/20 A2976 RMK A01 T02520196  RH  071%=      5-min Rain = 0
KCL2 280253Z 15013KT 25/20 A2976 RMK A01 T02520196  RH  071%=      5-min Rain = 0
KCL2 280254Z 15012KT 25/20 A2976 RMK A01 T02520196  RH  071%=      5-min Rain = 0
KCL2 280255Z 16012KT 25/20 A2976 RMK A01 T02520196  RH  071%=      5-min Rain = 0
KCL2 280256Z 15015KT 25/20 A2976 RMK A01 T02520196  RH  071%=      5-min Rain = 0
KCL2 280257Z 16013KT 25/20 A2976 RMK A01 T02520196  RH  071%=      5-min Rain = 0
KCL2 280258Z 15016G21KT 25/20 A2976 RMK A01 T02520195  RH  071%=      5-min Rain = 0
KCL2 280259Z 15017KT 25/20 A2976 RMK A01 T02520195  RH  071%=      5-min Rain = 0
KCL2 280300Z 16017KT 25/20 A2976 RMK A01 T02520195  RH  070%=      5-min Rain = 0
KCL2 280301Z 15016KT 25/19 A2976 RMK A01 T02520194  RH  070%=      5-min Rain = 0
KCL2 280302Z 15013KT 25/19 A2976 RMK A01 T02520194  RH  070%=      5-min Rain = 0
KCL2 280303Z 15012G17KT 25/20 A2976 RMK A01 T02520195  RH  070%=      5-min Rain = 0
KCL2 280304Z 15013KT 25/20 A2976 RMK A01 T02520195  RH  071%=      5-min Rain = 0
KCL2 280305Z 16013KT 25/20 A2976 RMK A01 T02510195  RH  071%=      5-min Rain = 0
KCL2 280306Z 15012KT 25/20 A2976 RMK A01 T02510195  RH  071%=      5-min Rain = 0
KCL2 280307Z 15015KT 25/20 A2976 RMK A01 T02500195  RH  071%=      5-min Rain = 0
KCL2 280308Z 15015KT 25/19 A2976 RMK A01 T02500194  RH  071%=      5-min Rain = 0
KCL2 280309Z 15013G18KT 25/19 A2976 RMK A01 T02510194  RH  071%=      5-min Rain = 0
KCL2 280310Z 15013G18KT 25/19 A2976 RMK A01 T02510194  RH  071%=      5-min Rain = 0
KCL2 280311Z 16012KT 25/19 A2976 RMK A01 T02510194  RH  071%=      5-min Rain = 0
KCL2 280312Z 16017KT 25/19 A2976 RMK A01 T02500194  RH  071%=      5-min Rain = 0
KCL2 280313Z 15013KT 25/19 A2976 RMK A01 T02510194  RH  071%=      5-min Rain = 0
KCL2 280314Z 15016KT 25/19 A2977 RMK A01 T02510194  RH  071%=      5-min Rain = 0
KCL2 280315Z 16017KT 25/19 A2976 RMK A01 T02500193  RH  071%=      5-min Rain = 0
KCL2 280316Z 16015KT 25/19 A2976 RMK A01 T02510194  RH  071%=      5-min Rain = 0
KCL2 280317Z 16014G19KT 25/19 A2977 RMK A01 T02510194  RH  071%=      5-min Rain = 0
KCL2 280318Z 16015KT 25/19 A2977 RMK A01 T02500193  RH  071%=      5-min Rain = 0
KCL2 280319Z 15017G22KT 25/19 A2977 RMK A01 T02500194  RH  071%=      5-min Rain = 0
KCL2 280320Z 15016KT 25/19 A2977 RMK A01 T02500193  RH  071%=      5-min Rain = 0
KCL2 280321Z 16016KT 25/19 A2977 RMK A01 T02500193  RH  071%=      5-min Rain = 0
KCL2 280322Z 16015KT 25/19 A2977 RMK A01 T02500193  RH  071%=      5-min Rain = 0
KCL2 280323Z 16014KT 25/19 A2977 RMK A01 T02490193  RH  071%=      5-min Rain = 0
KCL2 280324Z 15016KT 25/19 A2977 RMK A01 T02490193  RH  071%=      5-min Rain = 0
KCL2 280325Z 15015KT 25/19 A2977 RMK A01 T02490192  RH  071%=      5-min Rain = 0
KCL2 280326Z 15014KT 25/19 A2977 RMK A01 T02490192  RH  071%=      5-min Rain = 0
KCL2 280327Z 15015G21KT 25/19 A2977 RMK A01 T02490192  RH  071%=      5-min Rain = 0
KCL2 280328Z 15015KT 25/19 A2977 RMK A01 T02490193  RH  071%=      5-min Rain = 0
KCL2 280329Z 16016KT 25/19 A2977 RMK A01 T02490192  RH  071%=      5-min Rain = 0
KCL2 280330Z 16018G25KT 25/19 A2977 RMK A01 T02490192  RH  071%=      5-min Rain = 0
KCL2 280331Z 15016KT 25/19 A2977 RMK A01 T02490192  RH  070%=      5-min Rain = 0
KCL2 280332Z 16016KT 25/19 A2977 RMK A01 T02490192  RH  070%=      5-min Rain = 0
KCL2 280333Z 15017G23KT 25/19 A2977 RMK A01 T02490192  RH  070%=      5-min Rain = 0
KCL2 280334Z 15019G24KT 25/19 A2977 RMK A01 T02490191  RH  070%=      5-min Rain = 0
KCL2 280335Z 15014KT 25/19 A2977 RMK A01 T02490191  RH  070%=      5-min Rain = 0
KCL2 280336Z 15017G22KT 25/19 A2977 RMK A01 T02490191  RH  070%=      5-min Rain = 0
KCL2 280337Z 15015G20KT 25/19 A2977 RMK A01 T02490191  RH  070%=      5-min Rain = 0
KCL2 280338Z 15014KT 25/19 A2977 RMK A01 T02490191  RH  070%=      5-min Rain = 0
KCL2 280339Z 16012G17KT 25/19 A2977 RMK A01 T02480192  RH  071%=      5-min Rain = 0
KCL2 280340Z 16016KT 25/19 A2977 RMK A01 T02470191  RH  071%=      5-min Rain = 0
KCL2 280341Z 16016G22KT 25/19 A2977 RMK A01 T02470191  RH  071%=      5-min Rain = 0
KCL2 280342Z 16015KT 25/19 A2977 RMK A01 T02470190  RH  071%=      5-min Rain = 0
KCL2 280343Z 15019KT 25/19 A2977 RMK A01 T02470191  RH  071%=      5-min Rain = 0
KCL2 280344Z 15017G22KT 25/19 A2977 RMK A01 T02470190  RH  071%=      5-min Rain = 0
KCL2 280345Z 16016KT 25/19 A2977 RMK A01 T02480190  RH  070%=      5-min Rain = 0
KCL2 280346Z 15015KT 25/19 A2977 RMK A01 T02480191  RH  070%=      5-min Rain = 0
KCL2 280347Z 16017KT 25/19 A2977 RMK A01 T02480191  RH  071%=      5-min Rain = 0
KCL2 280348Z 16015KT 25/19 A2977 RMK A01 T02470191  RH  071%=      5-min Rain = 0
KCL2 280349Z 15014KT 25/19 A2977 RMK A01 T02470190  RH  071%=      5-min Rain = 0
KCL2 280350Z 15015KT 25/19 A2977 RMK A01 T02470190  RH  071%=      5-min Rain = 0
KCL2 280351Z 15015KT 25/19 A2977 RMK A01 T02470190  RH  071%=      5-min Rain = 0
KCL2 280352Z 15014KT 25/19 A2977 RMK A01 T02470191  RH  071%=      5-min Rain = 0
KCL2 280353Z 15013KT 25/19 A2977 RMK A01 T02470191  RH  071%=      5-min Rain = 0
KCL2 280354Z 15017KT 25/19 A2977 RMK A01 T02460190  RH  071%=      5-min Rain = 0
KCL2 280355Z 15013KT 25/19 A2977 RMK A01 T02460190  RH  071%=      5-min Rain = 0
KCL2 280356Z 16011G17KT 25/19 A2977 RMK A01 T02460190  RH  071%=      5-min Rain = 0
KCL2 280357Z 16015KT 25/19 A2977 RMK A01 T02450190  RH  071%=      5-min Rain = 0
KCL2 280358Z 16013KT 25/19 A2977 RMK A01 T02450190  RH  071%=      5-min Rain = 0
KCL2 280359Z 16012G19KT 25/19 A2977 RMK A01 T02450190  RH  072%=      5-min Rain = 0
KCL2 280400Z 16015KT 25/19 A2977 RMK A01 T02450190  RH  072%=      5-min Rain = 0
KCL2 280401Z 15015G21KT 25/19 A2977 RMK A01 T02450190  RH  071%=      5-min Rain = 0
KCL2 280402Z 16017G23KT 25/19 A2977 RMK A01 T02450189  RH  071%=      5-min Rain = 0
KCL2 280403Z 16016KT 25/19 A2977 RMK A01 T02450189  RH  071%=      5-min Rain = 0
KCL2 280404Z 16016G21KT 25/19 A2977 RMK A01 T02450189  RH  071%=      5-min Rain = 0
KCL2 280405Z 15016KT 25/19 A2977 RMK A01 T02450190  RH  071%=      5-min Rain = 0
KCL2 280406Z 16014KT 24/19 A2977 RMK A01 T02440189  RH  071%=      5-min Rain = 0
KCL2 280407Z 15016KT 24/19 A2977 RMK A01 T02440189  RH  071%=      5-min Rain = 0
KCL2 280408Z 16015KT 24/19 A2977 RMK A01 T02440189  RH  071%=      5-min Rain = 0
KCL2 280409Z 15014KT 24/19 A2977 RMK A01 T02440189  RH  071%=      5-min Rain = 0
KCL2 280410Z 16013KT 24/19 A2977 RMK A01 T02440189  RH  071%=      5-min Rain = 0
KCL2 280411Z 16015G21KT 24/19 A2977 RMK A01 T02440189  RH  071%=      5-min Rain = 0
KCL2 280412Z 16011KT 24/19 A2977 RMK A01 T02440189  RH  071%=      5-min Rain = 0
KCL2 280413Z 16011KT 24/19 A2977 RMK A01 T02430189  RH  072%=      5-min Rain = 0
KCL2 280414Z 16011KT 24/19 A2977 RMK A01 T02420189  RH  072%=      5-min Rain = 0
KCL2 280415Z 15013KT 24/19 A2977 RMK A01 T02420189  RH  072%=      5-min Rain = 0
KCL2 280416Z 15014KT 24/19 A2977 RMK A01 T02410189  RH  072%=      5-min Rain = 0
KCL2 280417Z 16013G18KT 24/19 A2977 RMK A01 T02410189  RH  072%=      5-min Rain = 0
KCL2 280418Z 16016KT 24/19 A2977 RMK A01 T02410188  RH  072%=      5-min Rain = 0
KCL2 280419Z 16015KT 24/19 A2976 RMK A01 T02410188  RH  072%=      5-min Rain = 0
KCL2 280420Z 16015KT 24/19 A2976 RMK A01 T02410188  RH  072%=      5-min Rain = 0
KCL2 280421Z 16013G21KT 24/19 A2977 RMK A01 T02410188  RH  072%=      5-min Rain = 0
KCL2 280422Z 16016G22KT 24/19 A2976 RMK A01 T02410188  RH  072%=      5-min Rain = 0
KCL2 280423Z 16015KT 24/19 A2976 RMK A01 T02410188  RH  072%=      5-min Rain = 0
KCL2 280424Z 16015KT 24/19 A2976 RMK A01 T02410188  RH  072%=      5-min Rain = 0
KCL2 280425Z 16014G20KT 24/19 A2976 RMK A01 T02410188  RH  072%=      5-min Rain = 0
KCL2 280426Z 16014KT 24/19 A2976 RMK A01 T02410188  RH  072%=      5-min Rain = 0
KCL2 280427Z 16016KT 24/19 A2976 RMK A01 T02410187  RH  072%=      5-min Rain = 0
KCL2 280428Z 16014KT 24/19 A2976 RMK A01 T02410188  RH  072%=      5-min Rain = 0
KCL2 280429Z 16013KT 24/19 A2976 RMK A01 T02410187  RH  072%=      5-min Rain = 0
KCL2 280430Z 16012KT 24/19 A2976 RMK A01 T02400187  RH  072%=      5-min Rain = 0
KCL2 280431Z 16014G20KT 24/19 A2976 RMK A01 T02400187  RH  072%=      5-min Rain = 0
KCL2 280432Z 16018KT 24/19 A2976 RMK A01 T02390187  RH  072%=      5-min Rain = 0
KCL2 280433Z 16015KT 24/19 A2976 RMK A01 T02400186  RH  072%=      5-min Rain = 0
KCL2 280434Z 16017KT 24/19 A2976 RMK A01 T02400186  RH  072%=      5-min Rain = 0
KCL2 280435Z 16014KT 24/19 A2976 RMK A01 T02400186  RH  072%=      5-min Rain = 0
KCL2 280436Z 16015G20KT 24/19 A2976 RMK A01 T02400186  RH  072%=      5-min Rain = 0
KCL2 280437Z 16013KT 24/19 A2976 RMK A01 T02400187  RH  072%=      5-min Rain = 0
KCL2 280438Z 16016G21KT 24/19 A2976 RMK A01 T02390186  RH  072%=      5-min Rain = 0
KCL2 280439Z 16016KT 24/19 A2976 RMK A01 T02390186  RH  072%=      5-min Rain = 0
KCL2 280440Z 16016KT 24/19 A2976 RMK A01 T02390186  RH  072%=      5-min Rain = 0
KCL2 280441Z 16016KT 24/19 A2976 RMK A01 T02390186  RH  072%=      5-min Rain = 0
KCL2 280442Z 16015G20KT 24/19 A2976 RMK A01 T02390186  RH  072%=      5-min Rain = 0
KCL2 280443Z 16016KT 24/19 A2976 RMK A01 T02390186  RH  072%=      5-min Rain = 0
KCL2 280444Z 17017G22KT 24/19 A2976 RMK A01 T02390186  RH  072%=      5-min Rain = 0
KCL2 280445Z 16016G23KT 24/19 A2976 RMK A01 T02390186  RH  072%=      5-min Rain = 0
KCL2 280446Z 16016KT 24/19 A2976 RMK A01 T02390185  RH  072%=      5-min Rain = 0
KCL2 280447Z 16015KT 24/19 A2976 RMK A01 T02390186  RH  072%=      5-min Rain = 0
KCL2 280448Z 16016G21KT 24/19 A2976 RMK A01 T02380186  RH  072%=      5-min Rain = 0
KCL2 280449Z 17015G21KT 24/19 A2976 RMK A01 T02380186  RH  072%=      5-min Rain = 0
KCL2 280450Z 16013G18KT 24/19 A2976 RMK A01 T02380186  RH  073%=      5-min Rain = 0
KCL2 280451Z 16014KT 24/19 A2976 RMK A01 T02370186  RH  073%=      5-min Rain = 0
KCL2 280452Z 16014KT 24/19 A2976 RMK A01 T02370185  RH  073%=      5-min Rain = 0
KCL2 280453Z 16018KT 24/19 A2976 RMK A01 T02360185  RH  073%=      5-min Rain = 0
KCL2 280454Z 16016G21KT 24/19 A2976 RMK A01 T02360185  RH  073%=      5-min Rain = 0
KCL2 280455Z 16016G21KT 24/19 A2976 RMK A01 T02360185  RH  073%=      5-min Rain = 0
KCL2 280456Z 16017KT 24/19 A2976 RMK A01 T02360185  RH  073%=      5-min Rain = 0
KCL2 280457Z 16015KT 24/19 A2976 RMK A01 T02360185  RH  073%=      5-min Rain = 0
KCL2 280458Z 16015KT 24/19 A2975 RMK A01 T02360185  RH  073%=      5-min Rain = 0
KCL2 280459Z 16016G22KT 24/19 A2975 RMK A01 T02360185  RH  073%=      5-min Rain = 0

Page generated in 0.1416 seconds.